<?xml version="1.0" encoding="UTF-8" standalone="no" ?>
<gpx xmlns="http://www.topografix.com/GPX/1/1" xmlns:xsi="http://www.w3.org/2001/XMLSchema-instance" xsi:schemaLocation="http://www.topografix.com/GPX/1/1 http://www.topografix.com/GPX/1/1/gpx.xsd" version="1.1" creator="VisuGPX - https://www.visugpx.com">
  <metadata>
    <name>OMS CHENOVE Marche du vendredi 30 novembre 2012</name>
    <desc><![CDATA[De Flavignerot à Flavignerot via Velars]]></desc>
  </metadata>
  <trk>
    <name><![CDATA[OMS CHENOVE Marche du vendredi 30 novembre 2012_1]]></name>
    <trkseg>
      <trkpt lat="47.27778" lon="4.91435">
        <ele>494.872</ele>
        <time>2012-11-30T09:24:31Z</time>
      </trkpt>
      <trkpt lat="47.27778" lon="4.91433">
        <ele>493.813</ele>
        <time>2012-11-30T09:24:42Z</time>
      </trkpt>
      <trkpt lat="47.2778" lon="4.91433">
        <ele>492.2</ele>
        <time>2012-11-30T09:24:53Z</time>
      </trkpt>
      <trkpt lat="47.2778" lon="4.91433">
        <ele>492.53</ele>
        <time>2012-11-30T09:25:04Z</time>
      </trkpt>
      <trkpt lat="47.27778" lon="4.91433">
        <ele>492.521</ele>
        <time>2012-11-30T09:25:15Z</time>
      </trkpt>
      <trkpt lat="47.27778" lon="4.91433">
        <ele>492.001</ele>
        <time>2012-11-30T09:25:26Z</time>
      </trkpt>
      <trkpt lat="47.27778" lon="4.91433">
        <ele>492.24</ele>
        <time>2012-11-30T09:25:37Z</time>
      </trkpt>
      <trkpt lat="47.27778" lon="4.91433">
        <ele>492.24</ele>
        <time>2012-11-30T09:25:48Z</time>
      </trkpt>
      <trkpt lat="47.27778" lon="4.91433">
        <ele>492.216</ele>
        <time>2012-11-30T09:25:59Z</time>
      </trkpt>
      <trkpt lat="47.27778" lon="4.91433">
        <ele>492.216</ele>
        <time>2012-11-30T09:26:10Z</time>
      </trkpt>
      <trkpt lat="47.27775" lon="4.91427">
        <ele>492.137</ele>
        <time>2012-11-30T09:26:21Z</time>
      </trkpt>
      <trkpt lat="47.2777" lon="4.9141">
        <ele>492.165</ele>
        <time>2012-11-30T09:26:32Z</time>
      </trkpt>
      <trkpt lat="47.27765" lon="4.91398">
        <ele>492.224</ele>
        <time>2012-11-30T09:26:43Z</time>
      </trkpt>
      <trkpt lat="47.27758" lon="4.91382">
        <ele>492.607</ele>
        <time>2012-11-30T09:26:54Z</time>
      </trkpt>
      <trkpt lat="47.27752" lon="4.91362">
        <ele>490.482</ele>
        <time>2012-11-30T09:27:05Z</time>
      </trkpt>
      <trkpt lat="47.27745" lon="4.91342">
        <ele>488.558</ele>
        <time>2012-11-30T09:27:16Z</time>
      </trkpt>
      <trkpt lat="47.27737" lon="4.91322">
        <ele>488.153</ele>
        <time>2012-11-30T09:27:27Z</time>
      </trkpt>
      <trkpt lat="47.2773" lon="4.91305">
        <ele>487.508</ele>
        <time>2012-11-30T09:27:38Z</time>
      </trkpt>
      <trkpt lat="47.2772" lon="4.91287">
        <ele>486.125</ele>
        <time>2012-11-30T09:27:49Z</time>
      </trkpt>
      <trkpt lat="47.27712" lon="4.91267">
        <ele>483.308</ele>
        <time>2012-11-30T09:28:00Z</time>
      </trkpt>
      <trkpt lat="47.27702" lon="4.9125">
        <ele>482.121</ele>
        <time>2012-11-30T09:28:11Z</time>
      </trkpt>
      <trkpt lat="47.2769" lon="4.91233">
        <ele>479.465</ele>
        <time>2012-11-30T09:28:22Z</time>
      </trkpt>
      <trkpt lat="47.2768" lon="4.91217">
        <ele>475.62</ele>
        <time>2012-11-30T09:28:33Z</time>
      </trkpt>
      <trkpt lat="47.2767" lon="4.912">
        <ele>473.91</ele>
        <time>2012-11-30T09:28:44Z</time>
      </trkpt>
      <trkpt lat="47.27658" lon="4.91182">
        <ele>472.233</ele>
        <time>2012-11-30T09:28:55Z</time>
      </trkpt>
      <trkpt lat="47.2765" lon="4.91163">
        <ele>470.383</ele>
        <time>2012-11-30T09:29:06Z</time>
      </trkpt>
      <trkpt lat="47.2764" lon="4.91147">
        <ele>469.818</ele>
        <time>2012-11-30T09:29:17Z</time>
      </trkpt>
      <trkpt lat="47.27627" lon="4.9113">
        <ele>468.127</ele>
        <time>2012-11-30T09:29:28Z</time>
      </trkpt>
      <trkpt lat="47.27613" lon="4.91117">
        <ele>466.127</ele>
        <time>2012-11-30T09:29:39Z</time>
      </trkpt>
      <trkpt lat="47.276" lon="4.91105">
        <ele>465.014</ele>
        <time>2012-11-30T09:29:50Z</time>
      </trkpt>
      <trkpt lat="47.27587" lon="4.9109">
        <ele>463.147</ele>
        <time>2012-11-30T09:30:01Z</time>
      </trkpt>
      <trkpt lat="47.27577" lon="4.91077">
        <ele>461.723</ele>
        <time>2012-11-30T09:30:12Z</time>
      </trkpt>
      <trkpt lat="47.27567" lon="4.91065">
        <ele>460.026</ele>
        <time>2012-11-30T09:30:23Z</time>
      </trkpt>
      <trkpt lat="47.2756" lon="4.91052">
        <ele>458.886</ele>
        <time>2012-11-30T09:30:34Z</time>
      </trkpt>
      <trkpt lat="47.27553" lon="4.91038">
        <ele>458.345</ele>
        <time>2012-11-30T09:30:45Z</time>
      </trkpt>
      <trkpt lat="47.27548" lon="4.91025">
        <ele>456.41</ele>
        <time>2012-11-30T09:30:56Z</time>
      </trkpt>
      <trkpt lat="47.27542" lon="4.91008">
        <ele>454.24</ele>
        <time>2012-11-30T09:31:07Z</time>
      </trkpt>
      <trkpt lat="47.27538" lon="4.90993">
        <ele>453.088</ele>
        <time>2012-11-30T09:31:18Z</time>
      </trkpt>
      <trkpt lat="47.27527" lon="4.90985">
        <ele>452.5</ele>
        <time>2012-11-30T09:31:29Z</time>
      </trkpt>
      <trkpt lat="47.27512" lon="4.90973">
        <ele>450.654</ele>
        <time>2012-11-30T09:31:40Z</time>
      </trkpt>
      <trkpt lat="47.27503" lon="4.9097">
        <ele>450.472</ele>
        <time>2012-11-30T09:31:51Z</time>
      </trkpt>
      <trkpt lat="47.27495" lon="4.90965">
        <ele>449.709</ele>
        <time>2012-11-30T09:32:02Z</time>
      </trkpt>
      <trkpt lat="47.27485" lon="4.9096">
        <ele>449.703</ele>
        <time>2012-11-30T09:32:13Z</time>
      </trkpt>
      <trkpt lat="47.27478" lon="4.90955">
        <ele>448.153</ele>
        <time>2012-11-30T09:32:24Z</time>
      </trkpt>
      <trkpt lat="47.27472" lon="4.90952">
        <ele>447.106</ele>
        <time>2012-11-30T09:32:35Z</time>
      </trkpt>
      <trkpt lat="47.27468" lon="4.90952">
        <ele>447.144</ele>
        <time>2012-11-30T09:32:46Z</time>
      </trkpt>
      <trkpt lat="47.27463" lon="4.90947">
        <ele>446.756</ele>
        <time>2012-11-30T09:32:57Z</time>
      </trkpt>
      <trkpt lat="47.27458" lon="4.90945">
        <ele>446.565</ele>
        <time>2012-11-30T09:33:08Z</time>
      </trkpt>
      <trkpt lat="47.27447" lon="4.90937">
        <ele>444.183</ele>
        <time>2012-11-30T09:33:19Z</time>
      </trkpt>
      <trkpt lat="47.27437" lon="4.90933">
        <ele>443.01</ele>
        <time>2012-11-30T09:33:30Z</time>
      </trkpt>
      <trkpt lat="47.2743" lon="4.9093">
        <ele>441.503</ele>
        <time>2012-11-30T09:33:41Z</time>
      </trkpt>
      <trkpt lat="47.2742" lon="4.90922">
        <ele>441.42</ele>
        <time>2012-11-30T09:33:52Z</time>
      </trkpt>
      <trkpt lat="47.27417" lon="4.90917">
        <ele>440.389</ele>
        <time>2012-11-30T09:34:03Z</time>
      </trkpt>
      <trkpt lat="47.27408" lon="4.90907">
        <ele>440.129</ele>
        <time>2012-11-30T09:34:14Z</time>
      </trkpt>
      <trkpt lat="47.27402" lon="4.90898">
        <ele>437.913</ele>
        <time>2012-11-30T09:34:25Z</time>
      </trkpt>
      <trkpt lat="47.274" lon="4.90892">
        <ele>436.512</ele>
        <time>2012-11-30T09:34:36Z</time>
      </trkpt>
      <trkpt lat="47.27392" lon="4.90883">
        <ele>437.771</ele>
        <time>2012-11-30T09:34:47Z</time>
      </trkpt>
      <trkpt lat="47.2739" lon="4.90878">
        <ele>436.591</ele>
        <time>2012-11-30T09:34:58Z</time>
      </trkpt>
      <trkpt lat="47.27387" lon="4.9087">
        <ele>433.796</ele>
        <time>2012-11-30T09:35:09Z</time>
      </trkpt>
      <trkpt lat="47.27378" lon="4.90865">
        <ele>432.32</ele>
        <time>2012-11-30T09:35:20Z</time>
      </trkpt>
      <trkpt lat="47.27375" lon="4.90857">
        <ele>427.271</ele>
        <time>2012-11-30T09:35:31Z</time>
      </trkpt>
      <trkpt lat="47.2737" lon="4.90852">
        <ele>426.846</ele>
        <time>2012-11-30T09:35:42Z</time>
      </trkpt>
      <trkpt lat="47.27367" lon="4.9085">
        <ele>426.956</ele>
        <time>2012-11-30T09:35:53Z</time>
      </trkpt>
      <trkpt lat="47.27365" lon="4.9085">
        <ele>426.647</ele>
        <time>2012-11-30T09:36:04Z</time>
      </trkpt>
      <trkpt lat="47.27365" lon="4.9085">
        <ele>426.647</ele>
        <time>2012-11-30T09:36:15Z</time>
      </trkpt>
      <trkpt lat="47.27365" lon="4.90847">
        <ele>426.153</ele>
        <time>2012-11-30T09:36:26Z</time>
      </trkpt>
      <trkpt lat="47.27358" lon="4.9083">
        <ele>424.964</ele>
        <time>2012-11-30T09:36:37Z</time>
      </trkpt>
      <trkpt lat="47.27358" lon="4.90812">
        <ele>423.825</ele>
        <time>2012-11-30T09:36:48Z</time>
      </trkpt>
      <trkpt lat="47.27357" lon="4.90802">
        <ele>423.124</ele>
        <time>2012-11-30T09:36:59Z</time>
      </trkpt>
      <trkpt lat="47.27357" lon="4.90785">
        <ele>424.664</ele>
        <time>2012-11-30T09:37:10Z</time>
      </trkpt>
      <trkpt lat="47.2736" lon="4.9077">
        <ele>426.802</ele>
        <time>2012-11-30T09:37:21Z</time>
      </trkpt>
      <trkpt lat="47.27367" lon="4.90752">
        <ele>426.388</ele>
        <time>2012-11-30T09:37:32Z</time>
      </trkpt>
      <trkpt lat="47.27372" lon="4.90735">
        <ele>428.032</ele>
        <time>2012-11-30T09:37:43Z</time>
      </trkpt>
      <trkpt lat="47.27377" lon="4.90723">
        <ele>430.043</ele>
        <time>2012-11-30T09:37:54Z</time>
      </trkpt>
      <trkpt lat="47.27382" lon="4.90707">
        <ele>431.801</ele>
        <time>2012-11-30T09:38:05Z</time>
      </trkpt>
      <trkpt lat="47.27388" lon="4.90692">
        <ele>433.31</ele>
        <time>2012-11-30T09:38:16Z</time>
      </trkpt>
      <trkpt lat="47.27397" lon="4.90677">
        <ele>433.479</ele>
        <time>2012-11-30T09:38:27Z</time>
      </trkpt>
      <trkpt lat="47.27402" lon="4.90663">
        <ele>435.398</ele>
        <time>2012-11-30T09:38:38Z</time>
      </trkpt>
      <trkpt lat="47.27405" lon="4.90648">
        <ele>436.859</ele>
        <time>2012-11-30T09:38:49Z</time>
      </trkpt>
      <trkpt lat="47.2741" lon="4.90635">
        <ele>438.078</ele>
        <time>2012-11-30T09:39:00Z</time>
      </trkpt>
      <trkpt lat="47.27413" lon="4.9062">
        <ele>437.18</ele>
        <time>2012-11-30T09:39:11Z</time>
      </trkpt>
      <trkpt lat="47.27418" lon="4.90602">
        <ele>435.555</ele>
        <time>2012-11-30T09:39:22Z</time>
      </trkpt>
      <trkpt lat="47.27422" lon="4.90578">
        <ele>435.141</ele>
        <time>2012-11-30T09:39:33Z</time>
      </trkpt>
      <trkpt lat="47.27422" lon="4.9056">
        <ele>436.487</ele>
        <time>2012-11-30T09:39:44Z</time>
      </trkpt>
      <trkpt lat="47.2742" lon="4.90545">
        <ele>438.066</ele>
        <time>2012-11-30T09:39:55Z</time>
      </trkpt>
      <trkpt lat="47.27422" lon="4.90533">
        <ele>442.271</ele>
        <time>2012-11-30T09:40:06Z</time>
      </trkpt>
      <trkpt lat="47.27423" lon="4.90517">
        <ele>444.224</ele>
        <time>2012-11-30T09:40:17Z</time>
      </trkpt>
      <trkpt lat="47.27423" lon="4.90502">
        <ele>445.076</ele>
        <time>2012-11-30T09:40:28Z</time>
      </trkpt>
      <trkpt lat="47.27425" lon="4.90488">
        <ele>446.414</ele>
        <time>2012-11-30T09:40:39Z</time>
      </trkpt>
      <trkpt lat="47.27428" lon="4.90475">
        <ele>448.495</ele>
        <time>2012-11-30T09:40:50Z</time>
      </trkpt>
      <trkpt lat="47.27432" lon="4.9046">
        <ele>449.983</ele>
        <time>2012-11-30T09:41:01Z</time>
      </trkpt>
      <trkpt lat="47.27435" lon="4.9045">
        <ele>452.962</ele>
        <time>2012-11-30T09:41:12Z</time>
      </trkpt>
      <trkpt lat="47.27442" lon="4.90433">
        <ele>456.28</ele>
        <time>2012-11-30T09:41:23Z</time>
      </trkpt>
      <trkpt lat="47.27448" lon="4.90415">
        <ele>456.905</ele>
        <time>2012-11-30T09:41:34Z</time>
      </trkpt>
      <trkpt lat="47.27452" lon="4.904">
        <ele>455.246</ele>
        <time>2012-11-30T09:41:45Z</time>
      </trkpt>
      <trkpt lat="47.27455" lon="4.9038">
        <ele>455.873</ele>
        <time>2012-11-30T09:41:56Z</time>
      </trkpt>
      <trkpt lat="47.27458" lon="4.90365">
        <ele>457.103</ele>
        <time>2012-11-30T09:42:07Z</time>
      </trkpt>
      <trkpt lat="47.27462" lon="4.90353">
        <ele>458.099</ele>
        <time>2012-11-30T09:42:18Z</time>
      </trkpt>
      <trkpt lat="47.2746" lon="4.90345">
        <ele>460.796</ele>
        <time>2012-11-30T09:42:29Z</time>
      </trkpt>
      <trkpt lat="47.27457" lon="4.90333">
        <ele>462.617</ele>
        <time>2012-11-30T09:42:40Z</time>
      </trkpt>
      <trkpt lat="47.27453" lon="4.90315">
        <ele>465.605</ele>
        <time>2012-11-30T09:42:51Z</time>
      </trkpt>
      <trkpt lat="47.2745" lon="4.903">
        <ele>467.573</ele>
        <time>2012-11-30T09:43:02Z</time>
      </trkpt>
      <trkpt lat="47.2745" lon="4.9029">
        <ele>469.348</ele>
        <time>2012-11-30T09:43:13Z</time>
      </trkpt>
      <trkpt lat="47.27448" lon="4.90277">
        <ele>471.908</ele>
        <time>2012-11-30T09:43:24Z</time>
      </trkpt>
      <trkpt lat="47.27445" lon="4.90265">
        <ele>473.534</ele>
        <time>2012-11-30T09:43:35Z</time>
      </trkpt>
      <trkpt lat="47.27447" lon="4.90248">
        <ele>475.336</ele>
        <time>2012-11-30T09:43:46Z</time>
      </trkpt>
      <trkpt lat="47.27443" lon="4.90228">
        <ele>476.468</ele>
        <time>2012-11-30T09:43:57Z</time>
      </trkpt>
      <trkpt lat="47.27442" lon="4.90217">
        <ele>479.178</ele>
        <time>2012-11-30T09:44:08Z</time>
      </trkpt>
      <trkpt lat="47.2744" lon="4.90202">
        <ele>481.325</ele>
        <time>2012-11-30T09:44:19Z</time>
      </trkpt>
      <trkpt lat="47.27437" lon="4.90185">
        <ele>483.651</ele>
        <time>2012-11-30T09:44:30Z</time>
      </trkpt>
      <trkpt lat="47.27433" lon="4.90165">
        <ele>485.867</ele>
        <time>2012-11-30T09:44:41Z</time>
      </trkpt>
      <trkpt lat="47.27432" lon="4.90148">
        <ele>487.313</ele>
        <time>2012-11-30T09:44:52Z</time>
      </trkpt>
      <trkpt lat="47.27432" lon="4.90137">
        <ele>489.493</ele>
        <time>2012-11-30T09:45:03Z</time>
      </trkpt>
      <trkpt lat="47.2743" lon="4.90125">
        <ele>489.44</ele>
        <time>2012-11-30T09:45:14Z</time>
      </trkpt>
      <trkpt lat="47.27432" lon="4.9011">
        <ele>491.494</ele>
        <time>2012-11-30T09:45:25Z</time>
      </trkpt>
      <trkpt lat="47.27435" lon="4.90095">
        <ele>491.886</ele>
        <time>2012-11-30T09:45:36Z</time>
      </trkpt>
      <trkpt lat="47.27433" lon="4.90078">
        <ele>494.735</ele>
        <time>2012-11-30T09:45:47Z</time>
      </trkpt>
      <trkpt lat="47.27437" lon="4.90058">
        <ele>498.052</ele>
        <time>2012-11-30T09:45:58Z</time>
      </trkpt>
      <trkpt lat="47.27438" lon="4.90043">
        <ele>501.128</ele>
        <time>2012-11-30T09:46:09Z</time>
      </trkpt>
      <trkpt lat="47.27437" lon="4.90025">
        <ele>502.252</ele>
        <time>2012-11-30T09:46:20Z</time>
      </trkpt>
      <trkpt lat="47.27437" lon="4.90007">
        <ele>504.521</ele>
        <time>2012-11-30T09:46:31Z</time>
      </trkpt>
      <trkpt lat="47.27443" lon="4.89982">
        <ele>507.396</ele>
        <time>2012-11-30T09:46:42Z</time>
      </trkpt>
      <trkpt lat="47.27445" lon="4.89967">
        <ele>507.744</ele>
        <time>2012-11-30T09:46:53Z</time>
      </trkpt>
      <trkpt lat="47.27443" lon="4.89948">
        <ele>510.122</ele>
        <time>2012-11-30T09:47:04Z</time>
      </trkpt>
      <trkpt lat="47.27455" lon="4.89923">
        <ele>506.912</ele>
        <time>2012-11-30T09:47:15Z</time>
      </trkpt>
      <trkpt lat="47.27462" lon="4.89898">
        <ele>509.867</ele>
        <time>2012-11-30T09:47:26Z</time>
      </trkpt>
      <trkpt lat="47.27462" lon="4.89892">
        <ele>512.314</ele>
        <time>2012-11-30T09:47:37Z</time>
      </trkpt>
      <trkpt lat="47.27463" lon="4.89885">
        <ele>514.831</ele>
        <time>2012-11-30T09:47:48Z</time>
      </trkpt>
      <trkpt lat="47.2747" lon="4.89875">
        <ele>519.501</ele>
        <time>2012-11-30T09:47:59Z</time>
      </trkpt>
      <trkpt lat="47.27472" lon="4.89865">
        <ele>524.027</ele>
        <time>2012-11-30T09:48:10Z</time>
      </trkpt>
      <trkpt lat="47.27475" lon="4.89858">
        <ele>526.996</ele>
        <time>2012-11-30T09:48:21Z</time>
      </trkpt>
      <trkpt lat="47.27478" lon="4.89848">
        <ele>529.317</ele>
        <time>2012-11-30T09:48:32Z</time>
      </trkpt>
      <trkpt lat="47.27482" lon="4.89842">
        <ele>529.797</ele>
        <time>2012-11-30T09:48:43Z</time>
      </trkpt>
      <trkpt lat="47.27485" lon="4.8984">
        <ele>530.01</ele>
        <time>2012-11-30T09:48:54Z</time>
      </trkpt>
      <trkpt lat="47.27487" lon="4.89835">
        <ele>529.144</ele>
        <time>2012-11-30T09:49:05Z</time>
      </trkpt>
      <trkpt lat="47.27492" lon="4.89828">
        <ele>529.551</ele>
        <time>2012-11-30T09:49:16Z</time>
      </trkpt>
      <trkpt lat="47.27493" lon="4.89825">
        <ele>529.877</ele>
        <time>2012-11-30T09:49:27Z</time>
      </trkpt>
      <trkpt lat="47.27493" lon="4.89825">
        <ele>529.877</ele>
        <time>2012-11-30T09:49:38Z</time>
      </trkpt>
      <trkpt lat="47.27498" lon="4.8982">
        <ele>528.209</ele>
        <time>2012-11-30T09:49:49Z</time>
      </trkpt>
      <trkpt lat="47.27498" lon="4.8982">
        <ele>528.209</ele>
        <time>2012-11-30T09:50:00Z</time>
      </trkpt>
      <trkpt lat="47.27503" lon="4.89815">
        <ele>529.617</ele>
        <time>2012-11-30T09:50:11Z</time>
      </trkpt>
      <trkpt lat="47.27508" lon="4.8981">
        <ele>529.121</ele>
        <time>2012-11-30T09:50:22Z</time>
      </trkpt>
      <trkpt lat="47.27515" lon="4.89807">
        <ele>529.589</ele>
        <time>2012-11-30T09:50:33Z</time>
      </trkpt>
      <trkpt lat="47.2752" lon="4.89802">
        <ele>529.302</ele>
        <time>2012-11-30T09:50:44Z</time>
      </trkpt>
      <trkpt lat="47.2753" lon="4.89793">
        <ele>531.863</ele>
        <time>2012-11-30T09:50:55Z</time>
      </trkpt>
      <trkpt lat="47.27535" lon="4.89787">
        <ele>534.164</ele>
        <time>2012-11-30T09:51:06Z</time>
      </trkpt>
      <trkpt lat="47.27542" lon="4.89777">
        <ele>531.361</ele>
        <time>2012-11-30T09:51:17Z</time>
      </trkpt>
      <trkpt lat="47.27542" lon="4.89777">
        <ele>531.361</ele>
        <time>2012-11-30T09:51:28Z</time>
      </trkpt>
      <trkpt lat="47.27542" lon="4.89775">
        <ele>530.598</ele>
        <time>2012-11-30T09:51:39Z</time>
      </trkpt>
      <trkpt lat="47.27542" lon="4.89775">
        <ele>530.598</ele>
        <time>2012-11-30T09:51:50Z</time>
      </trkpt>
      <trkpt lat="47.27542" lon="4.89775">
        <ele>530.598</ele>
        <time>2012-11-30T09:52:01Z</time>
      </trkpt>
      <trkpt lat="47.27542" lon="4.89775">
        <ele>530.598</ele>
        <time>2012-11-30T09:52:12Z</time>
      </trkpt>
      <trkpt lat="47.27542" lon="4.89775">
        <ele>530.598</ele>
        <time>2012-11-30T09:52:23Z</time>
      </trkpt>
      <trkpt lat="47.27542" lon="4.89775">
        <ele>530.598</ele>
        <time>2012-11-30T09:52:34Z</time>
      </trkpt>
      <trkpt lat="47.27543" lon="4.89773">
        <ele>530.684</ele>
        <time>2012-11-30T09:52:45Z</time>
      </trkpt>
      <trkpt lat="47.27552" lon="4.89767">
        <ele>532.954</ele>
        <time>2012-11-30T09:52:56Z</time>
      </trkpt>
      <trkpt lat="47.27572" lon="4.89752">
        <ele>532.571</ele>
        <time>2012-11-30T09:53:07Z</time>
      </trkpt>
      <trkpt lat="47.2759" lon="4.89735">
        <ele>531.325</ele>
        <time>2012-11-30T09:53:18Z</time>
      </trkpt>
      <trkpt lat="47.27612" lon="4.89722">
        <ele>528.869</ele>
        <time>2012-11-30T09:53:29Z</time>
      </trkpt>
      <trkpt lat="47.27625" lon="4.89713">
        <ele>526.969</ele>
        <time>2012-11-30T09:53:40Z</time>
      </trkpt>
      <trkpt lat="47.2764" lon="4.89708">
        <ele>523.792</ele>
        <time>2012-11-30T09:53:51Z</time>
      </trkpt>
      <trkpt lat="47.2765" lon="4.89707">
        <ele>524.136</ele>
        <time>2012-11-30T09:54:02Z</time>
      </trkpt>
      <trkpt lat="47.27662" lon="4.89703">
        <ele>522.488</ele>
        <time>2012-11-30T09:54:13Z</time>
      </trkpt>
      <trkpt lat="47.27678" lon="4.89702">
        <ele>522.067</ele>
        <time>2012-11-30T09:54:24Z</time>
      </trkpt>
      <trkpt lat="47.27693" lon="4.89697">
        <ele>525.448</ele>
        <time>2012-11-30T09:54:35Z</time>
      </trkpt>
      <trkpt lat="47.27707" lon="4.8969">
        <ele>526.481</ele>
        <time>2012-11-30T09:54:46Z</time>
      </trkpt>
      <trkpt lat="47.27713" lon="4.89685">
        <ele>527.08</ele>
        <time>2012-11-30T09:54:57Z</time>
      </trkpt>
      <trkpt lat="47.27727" lon="4.89678">
        <ele>529.334</ele>
        <time>2012-11-30T09:55:08Z</time>
      </trkpt>
      <trkpt lat="47.27735" lon="4.89667">
        <ele>528.559</ele>
        <time>2012-11-30T09:55:19Z</time>
      </trkpt>
      <trkpt lat="47.2775" lon="4.89652">
        <ele>528.302</ele>
        <time>2012-11-30T09:55:30Z</time>
      </trkpt>
      <trkpt lat="47.27765" lon="4.89635">
        <ele>528.326</ele>
        <time>2012-11-30T09:55:41Z</time>
      </trkpt>
      <trkpt lat="47.27783" lon="4.8962">
        <ele>526.856</ele>
        <time>2012-11-30T09:55:52Z</time>
      </trkpt>
      <trkpt lat="47.27797" lon="4.89602">
        <ele>526.026</ele>
        <time>2012-11-30T09:56:03Z</time>
      </trkpt>
      <trkpt lat="47.27808" lon="4.8959">
        <ele>526.625</ele>
        <time>2012-11-30T09:56:14Z</time>
      </trkpt>
      <trkpt lat="47.27822" lon="4.89575">
        <ele>526.018</ele>
        <time>2012-11-30T09:56:25Z</time>
      </trkpt>
      <trkpt lat="47.27833" lon="4.89563">
        <ele>526.517</ele>
        <time>2012-11-30T09:56:36Z</time>
      </trkpt>
      <trkpt lat="47.27848" lon="4.89548">
        <ele>525.532</ele>
        <time>2012-11-30T09:56:47Z</time>
      </trkpt>
      <trkpt lat="47.27865" lon="4.89538">
        <ele>521.354</ele>
        <time>2012-11-30T09:56:58Z</time>
      </trkpt>
      <trkpt lat="47.27872" lon="4.89532">
        <ele>523.22</ele>
        <time>2012-11-30T09:57:09Z</time>
      </trkpt>
      <trkpt lat="47.2788" lon="4.89522">
        <ele>524.308</ele>
        <time>2012-11-30T09:57:20Z</time>
      </trkpt>
      <trkpt lat="47.27892" lon="4.89512">
        <ele>524.752</ele>
        <time>2012-11-30T09:57:31Z</time>
      </trkpt>
      <trkpt lat="47.279" lon="4.89505">
        <ele>525.925</ele>
        <time>2012-11-30T09:57:42Z</time>
      </trkpt>
      <trkpt lat="47.27913" lon="4.89495">
        <ele>527.097</ele>
        <time>2012-11-30T09:57:53Z</time>
      </trkpt>
      <trkpt lat="47.2793" lon="4.89487">
        <ele>529.699</ele>
        <time>2012-11-30T09:58:04Z</time>
      </trkpt>
      <trkpt lat="47.27945" lon="4.89478">
        <ele>532.267</ele>
        <time>2012-11-30T09:58:15Z</time>
      </trkpt>
      <trkpt lat="47.2795" lon="4.89477">
        <ele>530.889</ele>
        <time>2012-11-30T09:58:26Z</time>
      </trkpt>
      <trkpt lat="47.27957" lon="4.89473">
        <ele>530.559</ele>
        <time>2012-11-30T09:58:37Z</time>
      </trkpt>
      <trkpt lat="47.27968" lon="4.89467">
        <ele>529.583</ele>
        <time>2012-11-30T09:58:48Z</time>
      </trkpt>
      <trkpt lat="47.27982" lon="4.89463">
        <ele>530.944</ele>
        <time>2012-11-30T09:58:59Z</time>
      </trkpt>
      <trkpt lat="47.27995" lon="4.89457">
        <ele>531.005</ele>
        <time>2012-11-30T09:59:10Z</time>
      </trkpt>
      <trkpt lat="47.28002" lon="4.89452">
        <ele>530.677</ele>
        <time>2012-11-30T09:59:21Z</time>
      </trkpt>
      <trkpt lat="47.28012" lon="4.89447">
        <ele>532.733</ele>
        <time>2012-11-30T09:59:32Z</time>
      </trkpt>
      <trkpt lat="47.28028" lon="4.89435">
        <ele>535.555</ele>
        <time>2012-11-30T09:59:43Z</time>
      </trkpt>
      <trkpt lat="47.28047" lon="4.89418">
        <ele>536.039</ele>
        <time>2012-11-30T09:59:54Z</time>
      </trkpt>
      <trkpt lat="47.28065" lon="4.89402">
        <ele>536.684</ele>
        <time>2012-11-30T10:00:05Z</time>
      </trkpt>
      <trkpt lat="47.28082" lon="4.89383">
        <ele>537.571</ele>
        <time>2012-11-30T10:00:16Z</time>
      </trkpt>
      <trkpt lat="47.28092" lon="4.89373">
        <ele>538.96</ele>
        <time>2012-11-30T10:00:27Z</time>
      </trkpt>
      <trkpt lat="47.28098" lon="4.89368">
        <ele>538.207</ele>
        <time>2012-11-30T10:00:38Z</time>
      </trkpt>
      <trkpt lat="47.28117" lon="4.89352">
        <ele>542.025</ele>
        <time>2012-11-30T10:00:49Z</time>
      </trkpt>
      <trkpt lat="47.2813" lon="4.89348">
        <ele>540.191</ele>
        <time>2012-11-30T10:01:00Z</time>
      </trkpt>
      <trkpt lat="47.28142" lon="4.89343">
        <ele>539.25</ele>
        <time>2012-11-30T10:01:11Z</time>
      </trkpt>
      <trkpt lat="47.28162" lon="4.8934">
        <ele>538.926</ele>
        <time>2012-11-30T10:01:22Z</time>
      </trkpt>
      <trkpt lat="47.28175" lon="4.89337">
        <ele>542.927</ele>
        <time>2012-11-30T10:01:33Z</time>
      </trkpt>
      <trkpt lat="47.28183" lon="4.8933">
        <ele>543.796</ele>
        <time>2012-11-30T10:01:44Z</time>
      </trkpt>
      <trkpt lat="47.28197" lon="4.89322">
        <ele>544.067</ele>
        <time>2012-11-30T10:01:55Z</time>
      </trkpt>
      <trkpt lat="47.28212" lon="4.8932">
        <ele>544.508</ele>
        <time>2012-11-30T10:02:06Z</time>
      </trkpt>
      <trkpt lat="47.28228" lon="4.89317">
        <ele>543.548</ele>
        <time>2012-11-30T10:02:17Z</time>
      </trkpt>
      <trkpt lat="47.28248" lon="4.89317">
        <ele>542.139</ele>
        <time>2012-11-30T10:02:28Z</time>
      </trkpt>
      <trkpt lat="47.28257" lon="4.89318">
        <ele>540.848</ele>
        <time>2012-11-30T10:02:39Z</time>
      </trkpt>
      <trkpt lat="47.28265" lon="4.89318">
        <ele>538.47</ele>
        <time>2012-11-30T10:02:50Z</time>
      </trkpt>
      <trkpt lat="47.28268" lon="4.89318">
        <ele>536.679</ele>
        <time>2012-11-30T10:03:01Z</time>
      </trkpt>
      <trkpt lat="47.2828" lon="4.89327">
        <ele>534.646</ele>
        <time>2012-11-30T10:03:12Z</time>
      </trkpt>
      <trkpt lat="47.28287" lon="4.89332">
        <ele>532.075</ele>
        <time>2012-11-30T10:03:23Z</time>
      </trkpt>
      <trkpt lat="47.28288" lon="4.89337">
        <ele>531.659</ele>
        <time>2012-11-30T10:03:34Z</time>
      </trkpt>
      <trkpt lat="47.28292" lon="4.89343">
        <ele>531.096</ele>
        <time>2012-11-30T10:03:45Z</time>
      </trkpt>
      <trkpt lat="47.28298" lon="4.89358">
        <ele>528.999</ele>
        <time>2012-11-30T10:03:56Z</time>
      </trkpt>
      <trkpt lat="47.28305" lon="4.89373">
        <ele>527.762</ele>
        <time>2012-11-30T10:04:07Z</time>
      </trkpt>
      <trkpt lat="47.2831" lon="4.89385">
        <ele>525.893</ele>
        <time>2012-11-30T10:04:18Z</time>
      </trkpt>
      <trkpt lat="47.28322" lon="4.89407">
        <ele>523.098</ele>
        <time>2012-11-30T10:04:29Z</time>
      </trkpt>
      <trkpt lat="47.28328" lon="4.89422">
        <ele>521.382</ele>
        <time>2012-11-30T10:04:40Z</time>
      </trkpt>
      <trkpt lat="47.28337" lon="4.89438">
        <ele>519.067</ele>
        <time>2012-11-30T10:04:51Z</time>
      </trkpt>
      <trkpt lat="47.28345" lon="4.8946">
        <ele>517.101</ele>
        <time>2012-11-30T10:05:02Z</time>
      </trkpt>
      <trkpt lat="47.2835" lon="4.89468">
        <ele>515.894</ele>
        <time>2012-11-30T10:05:13Z</time>
      </trkpt>
      <trkpt lat="47.28358" lon="4.89482">
        <ele>514.053</ele>
        <time>2012-11-30T10:05:24Z</time>
      </trkpt>
      <trkpt lat="47.28367" lon="4.89495">
        <ele>514.604</ele>
        <time>2012-11-30T10:05:35Z</time>
      </trkpt>
      <trkpt lat="47.2838" lon="4.89512">
        <ele>511.784</ele>
        <time>2012-11-30T10:05:46Z</time>
      </trkpt>
      <trkpt lat="47.28385" lon="4.89517">
        <ele>510.675</ele>
        <time>2012-11-30T10:05:57Z</time>
      </trkpt>
      <trkpt lat="47.28392" lon="4.89523">
        <ele>511.504</ele>
        <time>2012-11-30T10:06:08Z</time>
      </trkpt>
      <trkpt lat="47.28408" lon="4.89543">
        <ele>507.465</ele>
        <time>2012-11-30T10:06:19Z</time>
      </trkpt>
      <trkpt lat="47.2842" lon="4.89557">
        <ele>506.088</ele>
        <time>2012-11-30T10:06:30Z</time>
      </trkpt>
      <trkpt lat="47.28437" lon="4.89578">
        <ele>501.26</ele>
        <time>2012-11-30T10:06:41Z</time>
      </trkpt>
      <trkpt lat="47.2845" lon="4.89593">
        <ele>500.56</ele>
        <time>2012-11-30T10:06:52Z</time>
      </trkpt>
      <trkpt lat="47.28458" lon="4.89602">
        <ele>499.562</ele>
        <time>2012-11-30T10:07:03Z</time>
      </trkpt>
      <trkpt lat="47.28472" lon="4.89618">
        <ele>497.981</ele>
        <time>2012-11-30T10:07:14Z</time>
      </trkpt>
      <trkpt lat="47.28488" lon="4.89633">
        <ele>495.058</ele>
        <time>2012-11-30T10:07:25Z</time>
      </trkpt>
      <trkpt lat="47.28502" lon="4.89645">
        <ele>494.153</ele>
        <time>2012-11-30T10:07:36Z</time>
      </trkpt>
      <trkpt lat="47.28512" lon="4.89653">
        <ele>492.017</ele>
        <time>2012-11-30T10:07:47Z</time>
      </trkpt>
      <trkpt lat="47.28525" lon="4.89663">
        <ele>491.147</ele>
        <time>2012-11-30T10:07:58Z</time>
      </trkpt>
      <trkpt lat="47.2854" lon="4.89677">
        <ele>491.152</ele>
        <time>2012-11-30T10:08:09Z</time>
      </trkpt>
      <trkpt lat="47.28555" lon="4.89687">
        <ele>488.883</ele>
        <time>2012-11-30T10:08:20Z</time>
      </trkpt>
      <trkpt lat="47.28572" lon="4.8969">
        <ele>486.347</ele>
        <time>2012-11-30T10:08:31Z</time>
      </trkpt>
      <trkpt lat="47.28593" lon="4.89703">
        <ele>486.3</ele>
        <time>2012-11-30T10:08:42Z</time>
      </trkpt>
      <trkpt lat="47.28612" lon="4.89717">
        <ele>489.271</ele>
        <time>2012-11-30T10:08:53Z</time>
      </trkpt>
      <trkpt lat="47.28627" lon="4.89725">
        <ele>487.479</ele>
        <time>2012-11-30T10:09:04Z</time>
      </trkpt>
      <trkpt lat="47.2864" lon="4.89732">
        <ele>488.044</ele>
        <time>2012-11-30T10:09:15Z</time>
      </trkpt>
      <trkpt lat="47.2865" lon="4.89733">
        <ele>488.174</ele>
        <time>2012-11-30T10:09:26Z</time>
      </trkpt>
      <trkpt lat="47.2866" lon="4.89737">
        <ele>490.265</ele>
        <time>2012-11-30T10:09:37Z</time>
      </trkpt>
      <trkpt lat="47.28672" lon="4.89742">
        <ele>490.265</ele>
        <time>2012-11-30T10:09:48Z</time>
      </trkpt>
      <trkpt lat="47.28693" lon="4.89747">
        <ele>491.094</ele>
        <time>2012-11-30T10:09:59Z</time>
      </trkpt>
      <trkpt lat="47.28717" lon="4.89762">
        <ele>487.968</ele>
        <time>2012-11-30T10:10:10Z</time>
      </trkpt>
      <trkpt lat="47.28742" lon="4.89775">
        <ele>487.985</ele>
        <time>2012-11-30T10:10:21Z</time>
      </trkpt>
      <trkpt lat="47.2875" lon="4.89777">
        <ele>488.632</ele>
        <time>2012-11-30T10:10:32Z</time>
      </trkpt>
      <trkpt lat="47.2877" lon="4.8978">
        <ele>491.269</ele>
        <time>2012-11-30T10:10:43Z</time>
      </trkpt>
      <trkpt lat="47.28788" lon="4.89785">
        <ele>492.756</ele>
        <time>2012-11-30T10:10:54Z</time>
      </trkpt>
      <trkpt lat="47.288" lon="4.89782">
        <ele>433.6</ele>
        <time>2012-11-30T10:11:05Z</time>
      </trkpt>
      <trkpt lat="47.28817" lon="4.89782">
        <ele>491.154</ele>
        <time>2012-11-30T10:11:16Z</time>
      </trkpt>
      <trkpt lat="47.28827" lon="4.89783">
        <ele>488.056</ele>
        <time>2012-11-30T10:11:27Z</time>
      </trkpt>
      <trkpt lat="47.28842" lon="4.89788">
        <ele>485.772</ele>
        <time>2012-11-30T10:11:38Z</time>
      </trkpt>
      <trkpt lat="47.28855" lon="4.89788">
        <ele>479.516</ele>
        <time>2012-11-30T10:11:49Z</time>
      </trkpt>
      <trkpt lat="47.28863" lon="4.89792">
        <ele>478.09</ele>
        <time>2012-11-30T10:12:00Z</time>
      </trkpt>
      <trkpt lat="47.28882" lon="4.89795">
        <ele>473.929</ele>
        <time>2012-11-30T10:12:11Z</time>
      </trkpt>
      <trkpt lat="47.28897" lon="4.89805">
        <ele>471.885</ele>
        <time>2012-11-30T10:12:22Z</time>
      </trkpt>
      <trkpt lat="47.28912" lon="4.89813">
        <ele>471.526</ele>
        <time>2012-11-30T10:12:33Z</time>
      </trkpt>
      <trkpt lat="47.28933" lon="4.89817">
        <ele>471.41</ele>
        <time>2012-11-30T10:12:44Z</time>
      </trkpt>
      <trkpt lat="47.2895" lon="4.8982">
        <ele>468.552</ele>
        <time>2012-11-30T10:12:55Z</time>
      </trkpt>
      <trkpt lat="47.28958" lon="4.8982">
        <ele>469.04</ele>
        <time>2012-11-30T10:13:06Z</time>
      </trkpt>
      <trkpt lat="47.2897" lon="4.89823">
        <ele>468.99</ele>
        <time>2012-11-30T10:13:17Z</time>
      </trkpt>
      <trkpt lat="47.28987" lon="4.89828">
        <ele>468.901</ele>
        <time>2012-11-30T10:13:28Z</time>
      </trkpt>
      <trkpt lat="47.29002" lon="4.8983">
        <ele>428.4</ele>
        <time>2012-11-30T10:13:39Z</time>
      </trkpt>
      <trkpt lat="47.29018" lon="4.89832">
        <ele>465.364</ele>
        <time>2012-11-30T10:13:50Z</time>
      </trkpt>
      <trkpt lat="47.29027" lon="4.89832">
        <ele>464.917</ele>
        <time>2012-11-30T10:14:01Z</time>
      </trkpt>
      <trkpt lat="47.2905" lon="4.89837">
        <ele>464.547</ele>
        <time>2012-11-30T10:14:12Z</time>
      </trkpt>
      <trkpt lat="47.29065" lon="4.89842">
        <ele>464.986</ele>
        <time>2012-11-30T10:14:23Z</time>
      </trkpt>
      <trkpt lat="47.2908" lon="4.8984">
        <ele>462.813</ele>
        <time>2012-11-30T10:14:34Z</time>
      </trkpt>
      <trkpt lat="47.2909" lon="4.89842">
        <ele>460.616</ele>
        <time>2012-11-30T10:14:45Z</time>
      </trkpt>
      <trkpt lat="47.29108" lon="4.89843">
        <ele>460.582</ele>
        <time>2012-11-30T10:14:56Z</time>
      </trkpt>
      <trkpt lat="47.29127" lon="4.89847">
        <ele>459.969</ele>
        <time>2012-11-30T10:15:07Z</time>
      </trkpt>
      <trkpt lat="47.29143" lon="4.8985">
        <ele>461.259</ele>
        <time>2012-11-30T10:15:18Z</time>
      </trkpt>
      <trkpt lat="47.29162" lon="4.89853">
        <ele>463.839</ele>
        <time>2012-11-30T10:15:29Z</time>
      </trkpt>
      <trkpt lat="47.29185" lon="4.89855">
        <ele>464.892</ele>
        <time>2012-11-30T10:15:40Z</time>
      </trkpt>
      <trkpt lat="47.29198" lon="4.89855">
        <ele>462.205</ele>
        <time>2012-11-30T10:15:51Z</time>
      </trkpt>
      <trkpt lat="47.2921" lon="4.89855">
        <ele>463.152</ele>
        <time>2012-11-30T10:16:02Z</time>
      </trkpt>
      <trkpt lat="47.29228" lon="4.89858">
        <ele>465.191</ele>
        <time>2012-11-30T10:16:13Z</time>
      </trkpt>
      <trkpt lat="47.29255" lon="4.89862">
        <ele>469.925</ele>
        <time>2012-11-30T10:16:24Z</time>
      </trkpt>
      <trkpt lat="47.2927" lon="4.89865">
        <ele>472.175</ele>
        <time>2012-11-30T10:16:35Z</time>
      </trkpt>
      <trkpt lat="47.29287" lon="4.89863">
        <ele>471.016</ele>
        <time>2012-11-30T10:16:46Z</time>
      </trkpt>
      <trkpt lat="47.29303" lon="4.8986">
        <ele>471.959</ele>
        <time>2012-11-30T10:16:57Z</time>
      </trkpt>
      <trkpt lat="47.2932" lon="4.89857">
        <ele>477.82</ele>
        <time>2012-11-30T10:17:08Z</time>
      </trkpt>
      <trkpt lat="47.2934" lon="4.8985">
        <ele>473.823</ele>
        <time>2012-11-30T10:17:19Z</time>
      </trkpt>
      <trkpt lat="47.29355" lon="4.8984">
        <ele>473.647</ele>
        <time>2012-11-30T10:17:30Z</time>
      </trkpt>
      <trkpt lat="47.29368" lon="4.89837">
        <ele>474.197</ele>
        <time>2012-11-30T10:17:41Z</time>
      </trkpt>
      <trkpt lat="47.29388" lon="4.8983">
        <ele>474.253</ele>
        <time>2012-11-30T10:17:52Z</time>
      </trkpt>
      <trkpt lat="47.29407" lon="4.8982">
        <ele>473.517</ele>
        <time>2012-11-30T10:18:03Z</time>
      </trkpt>
      <trkpt lat="47.29428" lon="4.8981">
        <ele>474.19</ele>
        <time>2012-11-30T10:18:14Z</time>
      </trkpt>
      <trkpt lat="47.2944" lon="4.89805">
        <ele>474.788</ele>
        <time>2012-11-30T10:18:25Z</time>
      </trkpt>
      <trkpt lat="47.29458" lon="4.89798">
        <ele>477.826</ele>
        <time>2012-11-30T10:18:36Z</time>
      </trkpt>
      <trkpt lat="47.29477" lon="4.89783">
        <ele>476.538</ele>
        <time>2012-11-30T10:18:47Z</time>
      </trkpt>
      <trkpt lat="47.29485" lon="4.89778">
        <ele>428</ele>
        <time>2012-11-30T10:18:58Z</time>
      </trkpt>
      <trkpt lat="47.29498" lon="4.8977">
        <ele>475.382</ele>
        <time>2012-11-30T10:19:09Z</time>
      </trkpt>
      <trkpt lat="47.29507" lon="4.89763">
        <ele>471.596</ele>
        <time>2012-11-30T10:19:20Z</time>
      </trkpt>
      <trkpt lat="47.29515" lon="4.89757">
        <ele>470.045</ele>
        <time>2012-11-30T10:19:31Z</time>
      </trkpt>
      <trkpt lat="47.2953" lon="4.8975">
        <ele>471.382</ele>
        <time>2012-11-30T10:19:42Z</time>
      </trkpt>
      <trkpt lat="47.29542" lon="4.89745">
        <ele>474.457</ele>
        <time>2012-11-30T10:19:53Z</time>
      </trkpt>
      <trkpt lat="47.29548" lon="4.89743">
        <ele>474.897</ele>
        <time>2012-11-30T10:20:04Z</time>
      </trkpt>
      <trkpt lat="47.29558" lon="4.8974">
        <ele>480.906</ele>
        <time>2012-11-30T10:20:15Z</time>
      </trkpt>
      <trkpt lat="47.29575" lon="4.89737">
        <ele>488.347</ele>
        <time>2012-11-30T10:20:26Z</time>
      </trkpt>
      <trkpt lat="47.29593" lon="4.8973">
        <ele>496.93</ele>
        <time>2012-11-30T10:20:37Z</time>
      </trkpt>
      <trkpt lat="47.29607" lon="4.89723">
        <ele>503.209</ele>
        <time>2012-11-30T10:20:48Z</time>
      </trkpt>
      <trkpt lat="47.2961" lon="4.89723">
        <ele>503.564</ele>
        <time>2012-11-30T10:20:59Z</time>
      </trkpt>
      <trkpt lat="47.29628" lon="4.89715">
        <ele>509.204</ele>
        <time>2012-11-30T10:21:10Z</time>
      </trkpt>
      <trkpt lat="47.29647" lon="4.8971">
        <ele>511.368</ele>
        <time>2012-11-30T10:21:21Z</time>
      </trkpt>
      <trkpt lat="47.29658" lon="4.89705">
        <ele>512.917</ele>
        <time>2012-11-30T10:21:32Z</time>
      </trkpt>
      <trkpt lat="47.29678" lon="4.897">
        <ele>511.79</ele>
        <time>2012-11-30T10:21:43Z</time>
      </trkpt>
      <trkpt lat="47.29693" lon="4.897">
        <ele>511.764</ele>
        <time>2012-11-30T10:21:54Z</time>
      </trkpt>
      <trkpt lat="47.29712" lon="4.89692">
        <ele>512.935</ele>
        <time>2012-11-30T10:22:05Z</time>
      </trkpt>
      <trkpt lat="47.29737" lon="4.89683">
        <ele>510.265</ele>
        <time>2012-11-30T10:22:16Z</time>
      </trkpt>
      <trkpt lat="47.29748" lon="4.8968">
        <ele>511.979</ele>
        <time>2012-11-30T10:22:27Z</time>
      </trkpt>
      <trkpt lat="47.2977" lon="4.89672">
        <ele>511.797</ele>
        <time>2012-11-30T10:22:38Z</time>
      </trkpt>
      <trkpt lat="47.29785" lon="4.89668">
        <ele>508.703</ele>
        <time>2012-11-30T10:22:49Z</time>
      </trkpt>
      <trkpt lat="47.29802" lon="4.89662">
        <ele>504.589</ele>
        <time>2012-11-30T10:23:00Z</time>
      </trkpt>
      <trkpt lat="47.29817" lon="4.89653">
        <ele>500.719</ele>
        <time>2012-11-30T10:23:11Z</time>
      </trkpt>
      <trkpt lat="47.29838" lon="4.89645">
        <ele>501.545</ele>
        <time>2012-11-30T10:23:22Z</time>
      </trkpt>
      <trkpt lat="47.29858" lon="4.89638">
        <ele>500.387</ele>
        <time>2012-11-30T10:23:33Z</time>
      </trkpt>
      <trkpt lat="47.29872" lon="4.89637">
        <ele>498.672</ele>
        <time>2012-11-30T10:23:44Z</time>
      </trkpt>
      <trkpt lat="47.2989" lon="4.89633">
        <ele>497.142</ele>
        <time>2012-11-30T10:23:55Z</time>
      </trkpt>
      <trkpt lat="47.29907" lon="4.8963">
        <ele>498.786</ele>
        <time>2012-11-30T10:24:06Z</time>
      </trkpt>
      <trkpt lat="47.29923" lon="4.89623">
        <ele>497.393</ele>
        <time>2012-11-30T10:24:17Z</time>
      </trkpt>
      <trkpt lat="47.29937" lon="4.8962">
        <ele>497.412</ele>
        <time>2012-11-30T10:24:28Z</time>
      </trkpt>
      <trkpt lat="47.29948" lon="4.89617">
        <ele>495.446</ele>
        <time>2012-11-30T10:24:39Z</time>
      </trkpt>
      <trkpt lat="47.2997" lon="4.89615">
        <ele>497.418</ele>
        <time>2012-11-30T10:24:50Z</time>
      </trkpt>
      <trkpt lat="47.29997" lon="4.89615">
        <ele>496.181</ele>
        <time>2012-11-30T10:25:01Z</time>
      </trkpt>
      <trkpt lat="47.30007" lon="4.89612">
        <ele>492.151</ele>
        <time>2012-11-30T10:25:12Z</time>
      </trkpt>
      <trkpt lat="47.30032" lon="4.89603">
        <ele>479.768</ele>
        <time>2012-11-30T10:25:23Z</time>
      </trkpt>
      <trkpt lat="47.30047" lon="4.89602">
        <ele>472.658</ele>
        <time>2012-11-30T10:25:34Z</time>
      </trkpt>
      <trkpt lat="47.3007" lon="4.89598">
        <ele>467.162</ele>
        <time>2012-11-30T10:25:45Z</time>
      </trkpt>
      <trkpt lat="47.30083" lon="4.89593">
        <ele>465.634</ele>
        <time>2012-11-30T10:25:56Z</time>
      </trkpt>
      <trkpt lat="47.30103" lon="4.89595">
        <ele>465.408</ele>
        <time>2012-11-30T10:26:07Z</time>
      </trkpt>
      <trkpt lat="47.3012" lon="4.89597">
        <ele>463.365</ele>
        <time>2012-11-30T10:26:18Z</time>
      </trkpt>
      <trkpt lat="47.30135" lon="4.89595">
        <ele>462.893</ele>
        <time>2012-11-30T10:26:29Z</time>
      </trkpt>
      <trkpt lat="47.3015" lon="4.89595">
        <ele>460.763</ele>
        <time>2012-11-30T10:26:40Z</time>
      </trkpt>
      <trkpt lat="47.30168" lon="4.89593">
        <ele>457.213</ele>
        <time>2012-11-30T10:26:51Z</time>
      </trkpt>
      <trkpt lat="47.30185" lon="4.89588">
        <ele>456.232</ele>
        <time>2012-11-30T10:27:02Z</time>
      </trkpt>
      <trkpt lat="47.30205" lon="4.89587">
        <ele>454.646</ele>
        <time>2012-11-30T10:27:13Z</time>
      </trkpt>
      <trkpt lat="47.30225" lon="4.89585">
        <ele>455.308</ele>
        <time>2012-11-30T10:27:24Z</time>
      </trkpt>
      <trkpt lat="47.30233" lon="4.89588">
        <ele>456.9</ele>
        <time>2012-11-30T10:27:35Z</time>
      </trkpt>
      <trkpt lat="47.30252" lon="4.89585">
        <ele>455.236</ele>
        <time>2012-11-30T10:27:46Z</time>
      </trkpt>
      <trkpt lat="47.30272" lon="4.89587">
        <ele>455.839</ele>
        <time>2012-11-30T10:27:57Z</time>
      </trkpt>
      <trkpt lat="47.30292" lon="4.89585">
        <ele>456.932</ele>
        <time>2012-11-30T10:28:08Z</time>
      </trkpt>
      <trkpt lat="47.30307" lon="4.89583">
        <ele>456.301</ele>
        <time>2012-11-30T10:28:19Z</time>
      </trkpt>
      <trkpt lat="47.3032" lon="4.89583">
        <ele>453.851</ele>
        <time>2012-11-30T10:28:30Z</time>
      </trkpt>
      <trkpt lat="47.3034" lon="4.89582">
        <ele>452.493</ele>
        <time>2012-11-30T10:28:41Z</time>
      </trkpt>
      <trkpt lat="47.30355" lon="4.89578">
        <ele>448.967</ele>
        <time>2012-11-30T10:28:52Z</time>
      </trkpt>
      <trkpt lat="47.3037" lon="4.89582">
        <ele>447.527</ele>
        <time>2012-11-30T10:29:03Z</time>
      </trkpt>
      <trkpt lat="47.30382" lon="4.8958">
        <ele>412.8</ele>
        <time>2012-11-30T10:29:14Z</time>
      </trkpt>
      <trkpt lat="47.30388" lon="4.8958">
        <ele>445.873</ele>
        <time>2012-11-30T10:29:25Z</time>
      </trkpt>
      <trkpt lat="47.30402" lon="4.89585">
        <ele>445.899</ele>
        <time>2012-11-30T10:29:36Z</time>
      </trkpt>
      <trkpt lat="47.30423" lon="4.89587">
        <ele>445.969</ele>
        <time>2012-11-30T10:29:47Z</time>
      </trkpt>
      <trkpt lat="47.30437" lon="4.89583">
        <ele>444.537</ele>
        <time>2012-11-30T10:29:58Z</time>
      </trkpt>
      <trkpt lat="47.30462" lon="4.89583">
        <ele>442.919</ele>
        <time>2012-11-30T10:30:09Z</time>
      </trkpt>
      <trkpt lat="47.30477" lon="4.89587">
        <ele>440.426</ele>
        <time>2012-11-30T10:30:20Z</time>
      </trkpt>
      <trkpt lat="47.30497" lon="4.89592">
        <ele>437.832</ele>
        <time>2012-11-30T10:30:31Z</time>
      </trkpt>
      <trkpt lat="47.30518" lon="4.89595">
        <ele>433.676</ele>
        <time>2012-11-30T10:30:42Z</time>
      </trkpt>
      <trkpt lat="47.30535" lon="4.89598">
        <ele>431.621</ele>
        <time>2012-11-30T10:30:53Z</time>
      </trkpt>
      <trkpt lat="47.30548" lon="4.89602">
        <ele>429.46</ele>
        <time>2012-11-30T10:31:04Z</time>
      </trkpt>
      <trkpt lat="47.30565" lon="4.89613">
        <ele>427.117</ele>
        <time>2012-11-30T10:31:15Z</time>
      </trkpt>
      <trkpt lat="47.30578" lon="4.8962">
        <ele>407.3</ele>
        <time>2012-11-30T10:31:26Z</time>
      </trkpt>
      <trkpt lat="47.30602" lon="4.8964">
        <ele>425.539</ele>
        <time>2012-11-30T10:31:37Z</time>
      </trkpt>
      <trkpt lat="47.30622" lon="4.8966">
        <ele>424.785</ele>
        <time>2012-11-30T10:31:48Z</time>
      </trkpt>
      <trkpt lat="47.30635" lon="4.89672">
        <ele>425.571</ele>
        <time>2012-11-30T10:31:59Z</time>
      </trkpt>
      <trkpt lat="47.30655" lon="4.89683">
        <ele>427.45</ele>
        <time>2012-11-30T10:32:10Z</time>
      </trkpt>
      <trkpt lat="47.30663" lon="4.89687">
        <ele>425.251</ele>
        <time>2012-11-30T10:32:21Z</time>
      </trkpt>
      <trkpt lat="47.30663" lon="4.89687">
        <ele>425.251</ele>
        <time>2012-11-30T10:32:32Z</time>
      </trkpt>
      <trkpt lat="47.30663" lon="4.89687">
        <ele>425.251</ele>
        <time>2012-11-30T10:32:43Z</time>
      </trkpt>
      <trkpt lat="47.30663" lon="4.89687">
        <ele>425.251</ele>
        <time>2012-11-30T10:32:54Z</time>
      </trkpt>
      <trkpt lat="47.30663" lon="4.89687">
        <ele>425.251</ele>
        <time>2012-11-30T10:33:05Z</time>
      </trkpt>
      <trkpt lat="47.30663" lon="4.89687">
        <ele>425.251</ele>
        <time>2012-11-30T10:33:16Z</time>
      </trkpt>
      <trkpt lat="47.30663" lon="4.89687">
        <ele>425.251</ele>
        <time>2012-11-30T10:33:27Z</time>
      </trkpt>
      <trkpt lat="47.30663" lon="4.89687">
        <ele>425.251</ele>
        <time>2012-11-30T10:33:38Z</time>
      </trkpt>
      <trkpt lat="47.30667" lon="4.89688">
        <ele>425.492</ele>
        <time>2012-11-30T10:33:49Z</time>
      </trkpt>
      <trkpt lat="47.30667" lon="4.89688">
        <ele>406.6</ele>
        <time>2012-11-30T10:34:00Z</time>
      </trkpt>
      <trkpt lat="47.3067" lon="4.8969">
        <ele>424.693</ele>
        <time>2012-11-30T10:34:11Z</time>
      </trkpt>
      <trkpt lat="47.30683" lon="4.89692">
        <ele>423.246</ele>
        <time>2012-11-30T10:34:22Z</time>
      </trkpt>
      <trkpt lat="47.307" lon="4.89697">
        <ele>419.475</ele>
        <time>2012-11-30T10:34:33Z</time>
      </trkpt>
      <trkpt lat="47.30712" lon="4.89707">
        <ele>414.394</ele>
        <time>2012-11-30T10:34:44Z</time>
      </trkpt>
      <trkpt lat="47.30727" lon="4.89715">
        <ele>411.955</ele>
        <time>2012-11-30T10:34:55Z</time>
      </trkpt>
      <trkpt lat="47.30737" lon="4.89732">
        <ele>402.6</ele>
        <time>2012-11-30T10:35:06Z</time>
      </trkpt>
      <trkpt lat="47.30747" lon="4.89748">
        <ele>413.457</ele>
        <time>2012-11-30T10:35:17Z</time>
      </trkpt>
      <trkpt lat="47.30757" lon="4.89757">
        <ele>413.685</ele>
        <time>2012-11-30T10:35:28Z</time>
      </trkpt>
      <trkpt lat="47.30768" lon="4.89777">
        <ele>414.411</ele>
        <time>2012-11-30T10:35:39Z</time>
      </trkpt>
      <trkpt lat="47.30785" lon="4.89803">
        <ele>413.532</ele>
        <time>2012-11-30T10:35:50Z</time>
      </trkpt>
      <trkpt lat="47.30797" lon="4.89833">
        <ele>410.4</ele>
        <time>2012-11-30T10:36:01Z</time>
      </trkpt>
      <trkpt lat="47.30808" lon="4.89855">
        <ele>409.216</ele>
        <time>2012-11-30T10:36:12Z</time>
      </trkpt>
      <trkpt lat="47.30822" lon="4.89882">
        <ele>409.461</ele>
        <time>2012-11-30T10:36:23Z</time>
      </trkpt>
      <trkpt lat="47.30833" lon="4.8991">
        <ele>409.23</ele>
        <time>2012-11-30T10:36:34Z</time>
      </trkpt>
      <trkpt lat="47.30843" lon="4.89935">
        <ele>408.841</ele>
        <time>2012-11-30T10:36:45Z</time>
      </trkpt>
      <trkpt lat="47.30853" lon="4.89962">
        <ele>407.64</ele>
        <time>2012-11-30T10:36:56Z</time>
      </trkpt>
      <trkpt lat="47.30862" lon="4.89987">
        <ele>408.013</ele>
        <time>2012-11-30T10:37:07Z</time>
      </trkpt>
      <trkpt lat="47.30867" lon="4.9001">
        <ele>408.042</ele>
        <time>2012-11-30T10:37:18Z</time>
      </trkpt>
      <trkpt lat="47.30873" lon="4.90035">
        <ele>410.108</ele>
        <time>2012-11-30T10:37:29Z</time>
      </trkpt>
      <trkpt lat="47.30878" lon="4.90055">
        <ele>411.005</ele>
        <time>2012-11-30T10:37:40Z</time>
      </trkpt>
      <trkpt lat="47.30885" lon="4.90087">
        <ele>409.784</ele>
        <time>2012-11-30T10:37:51Z</time>
      </trkpt>
      <trkpt lat="47.30888" lon="4.90117">
        <ele>409.308</ele>
        <time>2012-11-30T10:38:02Z</time>
      </trkpt>
      <trkpt lat="47.30893" lon="4.90143">
        <ele>409.437</ele>
        <time>2012-11-30T10:38:13Z</time>
      </trkpt>
      <trkpt lat="47.30897" lon="4.90162">
        <ele>410.686</ele>
        <time>2012-11-30T10:38:24Z</time>
      </trkpt>
      <trkpt lat="47.30898" lon="4.90167">
        <ele>410.6</ele>
        <time>2012-11-30T10:38:35Z</time>
      </trkpt>
      <trkpt lat="47.30897" lon="4.90185">
        <ele>408.064</ele>
        <time>2012-11-30T10:38:46Z</time>
      </trkpt>
      <trkpt lat="47.30898" lon="4.90212">
        <ele>406.611</ele>
        <time>2012-11-30T10:38:57Z</time>
      </trkpt>
      <trkpt lat="47.30902" lon="4.90237">
        <ele>394.9</ele>
        <time>2012-11-30T10:39:08Z</time>
      </trkpt>
      <trkpt lat="47.30903" lon="4.90262">
        <ele>404.989</ele>
        <time>2012-11-30T10:39:19Z</time>
      </trkpt>
      <trkpt lat="47.30893" lon="4.90283">
        <ele>404.231</ele>
        <time>2012-11-30T10:39:30Z</time>
      </trkpt>
      <trkpt lat="47.3088" lon="4.90292">
        <ele>405.284</ele>
        <time>2012-11-30T10:39:41Z</time>
      </trkpt>
      <trkpt lat="47.30868" lon="4.90295">
        <ele>406.319</ele>
        <time>2012-11-30T10:39:52Z</time>
      </trkpt>
      <trkpt lat="47.30858" lon="4.90298">
        <ele>409.881</ele>
        <time>2012-11-30T10:40:03Z</time>
      </trkpt>
      <trkpt lat="47.30852" lon="4.903">
        <ele>411.252</ele>
        <time>2012-11-30T10:40:14Z</time>
      </trkpt>
      <trkpt lat="47.3084" lon="4.90305">
        <ele>414.371</ele>
        <time>2012-11-30T10:40:25Z</time>
      </trkpt>
      <trkpt lat="47.30827" lon="4.90307">
        <ele>418.229</ele>
        <time>2012-11-30T10:40:36Z</time>
      </trkpt>
      <trkpt lat="47.3082" lon="4.90315">
        <ele>419.298</ele>
        <time>2012-11-30T10:40:47Z</time>
      </trkpt>
      <trkpt lat="47.30815" lon="4.90328">
        <ele>401.2</ele>
        <time>2012-11-30T10:40:58Z</time>
      </trkpt>
      <trkpt lat="47.30803" lon="4.90337">
        <ele>401.9</ele>
        <time>2012-11-30T10:41:09Z</time>
      </trkpt>
      <trkpt lat="47.30793" lon="4.90345">
        <ele>425.197</ele>
        <time>2012-11-30T10:41:20Z</time>
      </trkpt>
      <trkpt lat="47.30783" lon="4.90367">
        <ele>423.163</ele>
        <time>2012-11-30T10:41:31Z</time>
      </trkpt>
      <trkpt lat="47.30773" lon="4.90378">
        <ele>420.094</ele>
        <time>2012-11-30T10:41:42Z</time>
      </trkpt>
      <trkpt lat="47.30762" lon="4.90388">
        <ele>419.34</ele>
        <time>2012-11-30T10:41:53Z</time>
      </trkpt>
      <trkpt lat="47.30753" lon="4.904">
        <ele>419.234</ele>
        <time>2012-11-30T10:42:04Z</time>
      </trkpt>
      <trkpt lat="47.30735" lon="4.90408">
        <ele>417.214</ele>
        <time>2012-11-30T10:42:15Z</time>
      </trkpt>
      <trkpt lat="47.3072" lon="4.9042">
        <ele>419.108</ele>
        <time>2012-11-30T10:42:26Z</time>
      </trkpt>
      <trkpt lat="47.30713" lon="4.90428">
        <ele>420.539</ele>
        <time>2012-11-30T10:42:37Z</time>
      </trkpt>
      <trkpt lat="47.30698" lon="4.90437">
        <ele>420.735</ele>
        <time>2012-11-30T10:42:48Z</time>
      </trkpt>
      <trkpt lat="47.30685" lon="4.90442">
        <ele>421.587</ele>
        <time>2012-11-30T10:42:59Z</time>
      </trkpt>
      <trkpt lat="47.3067" lon="4.90448">
        <ele>420.552</ele>
        <time>2012-11-30T10:43:10Z</time>
      </trkpt>
      <trkpt lat="47.30652" lon="4.90452">
        <ele>415.028</ele>
        <time>2012-11-30T10:43:21Z</time>
      </trkpt>
      <trkpt lat="47.30628" lon="4.90457">
        <ele>404.4</ele>
        <time>2012-11-30T10:43:32Z</time>
      </trkpt>
      <trkpt lat="47.306" lon="4.90472">
        <ele>409.72</ele>
        <time>2012-11-30T10:43:43Z</time>
      </trkpt>
      <trkpt lat="47.30585" lon="4.9048">
        <ele>404.1</ele>
        <time>2012-11-30T10:43:54Z</time>
      </trkpt>
      <trkpt lat="47.30575" lon="4.90482">
        <ele>410.734</ele>
        <time>2012-11-30T10:44:05Z</time>
      </trkpt>
      <trkpt lat="47.30562" lon="4.90482">
        <ele>405.3</ele>
        <time>2012-11-30T10:44:16Z</time>
      </trkpt>
      <trkpt lat="47.30557" lon="4.90482">
        <ele>412.244</ele>
        <time>2012-11-30T10:44:27Z</time>
      </trkpt>
      <trkpt lat="47.30543" lon="4.90483">
        <ele>414.156</ele>
        <time>2012-11-30T10:44:38Z</time>
      </trkpt>
      <trkpt lat="47.30533" lon="4.90483">
        <ele>416.109</ele>
        <time>2012-11-30T10:44:49Z</time>
      </trkpt>
      <trkpt lat="47.30522" lon="4.90482">
        <ele>408</ele>
        <time>2012-11-30T10:45:00Z</time>
      </trkpt>
      <trkpt lat="47.30505" lon="4.90478">
        <ele>409.6</ele>
        <time>2012-11-30T10:45:11Z</time>
      </trkpt>
      <trkpt lat="47.30488" lon="4.90477">
        <ele>422.926</ele>
        <time>2012-11-30T10:45:22Z</time>
      </trkpt>
      <trkpt lat="47.30477" lon="4.9047">
        <ele>426.133</ele>
        <time>2012-11-30T10:45:33Z</time>
      </trkpt>
      <trkpt lat="47.30458" lon="4.90463">
        <ele>414.1</ele>
        <time>2012-11-30T10:45:44Z</time>
      </trkpt>
      <trkpt lat="47.30445" lon="4.90458">
        <ele>427.446</ele>
        <time>2012-11-30T10:45:55Z</time>
      </trkpt>
      <trkpt lat="47.30428" lon="4.90452">
        <ele>431.424</ele>
        <time>2012-11-30T10:46:06Z</time>
      </trkpt>
      <trkpt lat="47.30417" lon="4.90448">
        <ele>418.2</ele>
        <time>2012-11-30T10:46:17Z</time>
      </trkpt>
      <trkpt lat="47.30398" lon="4.90443">
        <ele>434.037</ele>
        <time>2012-11-30T10:46:28Z</time>
      </trkpt>
      <trkpt lat="47.30382" lon="4.90437">
        <ele>420.9</ele>
        <time>2012-11-30T10:46:39Z</time>
      </trkpt>
      <trkpt lat="47.30362" lon="4.90437">
        <ele>433.429</ele>
        <time>2012-11-30T10:46:50Z</time>
      </trkpt>
      <trkpt lat="47.30348" lon="4.90435">
        <ele>434.291</ele>
        <time>2012-11-30T10:47:01Z</time>
      </trkpt>
      <trkpt lat="47.3033" lon="4.9043">
        <ele>423.1</ele>
        <time>2012-11-30T10:47:12Z</time>
      </trkpt>
      <trkpt lat="47.3032" lon="4.90427">
        <ele>439.43</ele>
        <time>2012-11-30T10:47:23Z</time>
      </trkpt>
      <trkpt lat="47.30305" lon="4.90423">
        <ele>441.437</ele>
        <time>2012-11-30T10:47:34Z</time>
      </trkpt>
      <trkpt lat="47.3029" lon="4.90417">
        <ele>426</ele>
        <time>2012-11-30T10:47:45Z</time>
      </trkpt>
      <trkpt lat="47.30263" lon="4.90412">
        <ele>443.341</ele>
        <time>2012-11-30T10:47:56Z</time>
      </trkpt>
      <trkpt lat="47.30252" lon="4.90412">
        <ele>427.1</ele>
        <time>2012-11-30T10:48:07Z</time>
      </trkpt>
      <trkpt lat="47.30228" lon="4.90408">
        <ele>442.505</ele>
        <time>2012-11-30T10:48:18Z</time>
      </trkpt>
      <trkpt lat="47.30208" lon="4.90407">
        <ele>445.439</ele>
        <time>2012-11-30T10:48:29Z</time>
      </trkpt>
      <trkpt lat="47.30192" lon="4.90407">
        <ele>444.324</ele>
        <time>2012-11-30T10:48:40Z</time>
      </trkpt>
      <trkpt lat="47.30175" lon="4.90407">
        <ele>442.844</ele>
        <time>2012-11-30T10:48:51Z</time>
      </trkpt>
      <trkpt lat="47.30158" lon="4.90407">
        <ele>427.9</ele>
        <time>2012-11-30T10:49:02Z</time>
      </trkpt>
      <trkpt lat="47.30138" lon="4.90405">
        <ele>440.811</ele>
        <time>2012-11-30T10:49:13Z</time>
      </trkpt>
      <trkpt lat="47.30125" lon="4.90402">
        <ele>429.5</ele>
        <time>2012-11-30T10:49:24Z</time>
      </trkpt>
      <trkpt lat="47.30105" lon="4.904">
        <ele>439.419</ele>
        <time>2012-11-30T10:49:35Z</time>
      </trkpt>
      <trkpt lat="47.3009" lon="4.90402">
        <ele>430.1</ele>
        <time>2012-11-30T10:49:46Z</time>
      </trkpt>
      <trkpt lat="47.30077" lon="4.90405">
        <ele>437.92</ele>
        <time>2012-11-30T10:49:57Z</time>
      </trkpt>
      <trkpt lat="47.30063" lon="4.90408">
        <ele>429.3</ele>
        <time>2012-11-30T10:50:08Z</time>
      </trkpt>
      <trkpt lat="47.3005" lon="4.90413">
        <ele>439.807</ele>
        <time>2012-11-30T10:50:19Z</time>
      </trkpt>
      <trkpt lat="47.30037" lon="4.90417">
        <ele>428.7</ele>
        <time>2012-11-30T10:50:30Z</time>
      </trkpt>
      <trkpt lat="47.30018" lon="4.90423">
        <ele>439.359</ele>
        <time>2012-11-30T10:50:41Z</time>
      </trkpt>
      <trkpt lat="47.30003" lon="4.90432">
        <ele>444.172</ele>
        <time>2012-11-30T10:50:52Z</time>
      </trkpt>
      <trkpt lat="47.2999" lon="4.90443">
        <ele>452.402</ele>
        <time>2012-11-30T10:51:03Z</time>
      </trkpt>
      <trkpt lat="47.2997" lon="4.90453">
        <ele>455.53</ele>
        <time>2012-11-30T10:51:14Z</time>
      </trkpt>
      <trkpt lat="47.29952" lon="4.9047">
        <ele>459.143</ele>
        <time>2012-11-30T10:51:25Z</time>
      </trkpt>
      <trkpt lat="47.29937" lon="4.90487">
        <ele>459.808</ele>
        <time>2012-11-30T10:51:36Z</time>
      </trkpt>
      <trkpt lat="47.29927" lon="4.90508">
        <ele>422.8</ele>
        <time>2012-11-30T10:51:47Z</time>
      </trkpt>
      <trkpt lat="47.29918" lon="4.90527">
        <ele>458.167</ele>
        <time>2012-11-30T10:51:58Z</time>
      </trkpt>
      <trkpt lat="47.29912" lon="4.90553">
        <ele>422.8</ele>
        <time>2012-11-30T10:52:09Z</time>
      </trkpt>
      <trkpt lat="47.29905" lon="4.90575">
        <ele>461.073</ele>
        <time>2012-11-30T10:52:20Z</time>
      </trkpt>
      <trkpt lat="47.29903" lon="4.90582">
        <ele>424.4</ele>
        <time>2012-11-30T10:52:31Z</time>
      </trkpt>
      <trkpt lat="47.29897" lon="4.90605">
        <ele>460.918</ele>
        <time>2012-11-30T10:52:42Z</time>
      </trkpt>
      <trkpt lat="47.29893" lon="4.9062">
        <ele>426.2</ele>
        <time>2012-11-30T10:52:53Z</time>
      </trkpt>
      <trkpt lat="47.29888" lon="4.90635">
        <ele>463.037</ele>
        <time>2012-11-30T10:53:04Z</time>
      </trkpt>
      <trkpt lat="47.29885" lon="4.90658">
        <ele>427.3</ele>
        <time>2012-11-30T10:53:15Z</time>
      </trkpt>
      <trkpt lat="47.29877" lon="4.9068">
        <ele>463.525</ele>
        <time>2012-11-30T10:53:26Z</time>
      </trkpt>
      <trkpt lat="47.29873" lon="4.90705">
        <ele>428.5</ele>
        <time>2012-11-30T10:53:37Z</time>
      </trkpt>
      <trkpt lat="47.29865" lon="4.90732">
        <ele>462.064</ele>
        <time>2012-11-30T10:53:48Z</time>
      </trkpt>
      <trkpt lat="47.2986" lon="4.90757">
        <ele>430</ele>
        <time>2012-11-30T10:53:59Z</time>
      </trkpt>
      <trkpt lat="47.29858" lon="4.90788">
        <ele>429.1</ele>
        <time>2012-11-30T10:54:10Z</time>
      </trkpt>
      <trkpt lat="47.29847" lon="4.90822">
        <ele>455.176</ele>
        <time>2012-11-30T10:54:21Z</time>
      </trkpt>
      <trkpt lat="47.29837" lon="4.90838">
        <ele>429.3</ele>
        <time>2012-11-30T10:54:32Z</time>
      </trkpt>
      <trkpt lat="47.29828" lon="4.90853">
        <ele>451.157</ele>
        <time>2012-11-30T10:54:43Z</time>
      </trkpt>
      <trkpt lat="47.29827" lon="4.90868">
        <ele>428.9</ele>
        <time>2012-11-30T10:54:54Z</time>
      </trkpt>
      <trkpt lat="47.29832" lon="4.90875">
        <ele>447.839</ele>
        <time>2012-11-30T10:55:05Z</time>
      </trkpt>
      <trkpt lat="47.29838" lon="4.90887">
        <ele>425.7</ele>
        <time>2012-11-30T10:55:16Z</time>
      </trkpt>
      <trkpt lat="47.29845" lon="4.90895">
        <ele>424.1</ele>
        <time>2012-11-30T10:55:27Z</time>
      </trkpt>
      <trkpt lat="47.29845" lon="4.90897">
        <ele>423.9</ele>
        <time>2012-11-30T10:55:38Z</time>
      </trkpt>
      <trkpt lat="47.29842" lon="4.90895">
        <ele>424.4</ele>
        <time>2012-11-30T10:55:49Z</time>
      </trkpt>
      <trkpt lat="47.29838" lon="4.90895">
        <ele>424.8</ele>
        <time>2012-11-30T10:56:00Z</time>
      </trkpt>
      <trkpt lat="47.29825" lon="4.90898">
        <ele>425.6</ele>
        <time>2012-11-30T10:56:11Z</time>
      </trkpt>
      <trkpt lat="47.29815" lon="4.909">
        <ele>426.1</ele>
        <time>2012-11-30T10:56:22Z</time>
      </trkpt>
      <trkpt lat="47.298" lon="4.90898">
        <ele>427.4</ele>
        <time>2012-11-30T10:56:33Z</time>
      </trkpt>
      <trkpt lat="47.29782" lon="4.90897">
        <ele>429.3</ele>
        <time>2012-11-30T10:56:44Z</time>
      </trkpt>
      <trkpt lat="47.2976" lon="4.90895">
        <ele>431.2</ele>
        <time>2012-11-30T10:56:55Z</time>
      </trkpt>
      <trkpt lat="47.29742" lon="4.90893">
        <ele>432.5</ele>
        <time>2012-11-30T10:57:06Z</time>
      </trkpt>
      <trkpt lat="47.2972" lon="4.90892">
        <ele>433.4</ele>
        <time>2012-11-30T10:57:17Z</time>
      </trkpt>
      <trkpt lat="47.29705" lon="4.90892">
        <ele>433.5</ele>
        <time>2012-11-30T10:57:28Z</time>
      </trkpt>
      <trkpt lat="47.29687" lon="4.90892">
        <ele>433.7</ele>
        <time>2012-11-30T10:57:39Z</time>
      </trkpt>
      <trkpt lat="47.29663" lon="4.90892">
        <ele>434.3</ele>
        <time>2012-11-30T10:57:50Z</time>
      </trkpt>
      <trkpt lat="47.29643" lon="4.90892">
        <ele>434.3</ele>
        <time>2012-11-30T10:58:01Z</time>
      </trkpt>
      <trkpt lat="47.29633" lon="4.9089">
        <ele>434.5</ele>
        <time>2012-11-30T10:58:12Z</time>
      </trkpt>
      <trkpt lat="47.29625" lon="4.90893">
        <ele>433.4</ele>
        <time>2012-11-30T10:58:23Z</time>
      </trkpt>
      <trkpt lat="47.29615" lon="4.90892">
        <ele>433.4</ele>
        <time>2012-11-30T10:58:34Z</time>
      </trkpt>
      <trkpt lat="47.29607" lon="4.90888">
        <ele>434</ele>
        <time>2012-11-30T10:58:45Z</time>
      </trkpt>
      <trkpt lat="47.29598" lon="4.90885">
        <ele>434.5</ele>
        <time>2012-11-30T10:58:56Z</time>
      </trkpt>
      <trkpt lat="47.29587" lon="4.90878">
        <ele>435.8</ele>
        <time>2012-11-30T10:59:07Z</time>
      </trkpt>
      <trkpt lat="47.2957" lon="4.90877">
        <ele>435.6</ele>
        <time>2012-11-30T10:59:18Z</time>
      </trkpt>
      <trkpt lat="47.29558" lon="4.90872">
        <ele>436.4</ele>
        <time>2012-11-30T10:59:29Z</time>
      </trkpt>
      <trkpt lat="47.29552" lon="4.90872">
        <ele>436.1</ele>
        <time>2012-11-30T10:59:40Z</time>
      </trkpt>
      <trkpt lat="47.29547" lon="4.9087">
        <ele>436.1</ele>
        <time>2012-11-30T10:59:51Z</time>
      </trkpt>
      <trkpt lat="47.29545" lon="4.90872">
        <ele>435.6</ele>
        <time>2012-11-30T11:00:02Z</time>
      </trkpt>
      <trkpt lat="47.29537" lon="4.90873">
        <ele>434.6</ele>
        <time>2012-11-30T11:00:13Z</time>
      </trkpt>
      <trkpt lat="47.29532" lon="4.90875">
        <ele>433.8</ele>
        <time>2012-11-30T11:00:24Z</time>
      </trkpt>
      <trkpt lat="47.29528" lon="4.90878">
        <ele>432.7</ele>
        <time>2012-11-30T11:00:35Z</time>
      </trkpt>
      <trkpt lat="47.29525" lon="4.9088">
        <ele>432</ele>
        <time>2012-11-30T11:00:46Z</time>
      </trkpt>
      <trkpt lat="47.29523" lon="4.90883">
        <ele>431.1</ele>
        <time>2012-11-30T11:00:57Z</time>
      </trkpt>
      <trkpt lat="47.29517" lon="4.90888">
        <ele>429.3</ele>
        <time>2012-11-30T11:01:08Z</time>
      </trkpt>
      <trkpt lat="47.29513" lon="4.90895">
        <ele>427.4</ele>
        <time>2012-11-30T11:01:19Z</time>
      </trkpt>
      <trkpt lat="47.29508" lon="4.90907">
        <ele>424.1</ele>
        <time>2012-11-30T11:01:30Z</time>
      </trkpt>
      <trkpt lat="47.29503" lon="4.9092">
        <ele>420.4</ele>
        <time>2012-11-30T11:01:41Z</time>
      </trkpt>
      <trkpt lat="47.29497" lon="4.90935">
        <ele>416.2</ele>
        <time>2012-11-30T11:01:52Z</time>
      </trkpt>
      <trkpt lat="47.2949" lon="4.90945">
        <ele>413.5</ele>
        <time>2012-11-30T11:02:03Z</time>
      </trkpt>
      <trkpt lat="47.29488" lon="4.90953">
        <ele>411.3</ele>
        <time>2012-11-30T11:02:14Z</time>
      </trkpt>
      <trkpt lat="47.29488" lon="4.9096">
        <ele>409.7</ele>
        <time>2012-11-30T11:02:25Z</time>
      </trkpt>
      <trkpt lat="47.29488" lon="4.90973">
        <ele>406.3</ele>
        <time>2012-11-30T11:02:36Z</time>
      </trkpt>
      <trkpt lat="47.29488" lon="4.90977">
        <ele>405.3</ele>
        <time>2012-11-30T11:02:47Z</time>
      </trkpt>
      <trkpt lat="47.29488" lon="4.9098">
        <ele>404.3</ele>
        <time>2012-11-30T11:02:58Z</time>
      </trkpt>
      <trkpt lat="47.29487" lon="4.90983">
        <ele>403.3</ele>
        <time>2012-11-30T11:03:09Z</time>
      </trkpt>
      <trkpt lat="47.29485" lon="4.90993">
        <ele>400.4</ele>
        <time>2012-11-30T11:03:20Z</time>
      </trkpt>
      <trkpt lat="47.29483" lon="4.90997">
        <ele>399.4</ele>
        <time>2012-11-30T11:03:31Z</time>
      </trkpt>
      <trkpt lat="47.29482" lon="4.91002">
        <ele>397.9</ele>
        <time>2012-11-30T11:03:42Z</time>
      </trkpt>
      <trkpt lat="47.29482" lon="4.91005">
        <ele>396.9</ele>
        <time>2012-11-30T11:03:53Z</time>
      </trkpt>
      <trkpt lat="47.29478" lon="4.91015">
        <ele>393.9</ele>
        <time>2012-11-30T11:04:04Z</time>
      </trkpt>
      <trkpt lat="47.29477" lon="4.91015">
        <ele>393.8</ele>
        <time>2012-11-30T11:04:15Z</time>
      </trkpt>
      <trkpt lat="47.29472" lon="4.91025">
        <ele>390.8</ele>
        <time>2012-11-30T11:04:26Z</time>
      </trkpt>
      <trkpt lat="47.2947" lon="4.91032">
        <ele>388.6</ele>
        <time>2012-11-30T11:04:37Z</time>
      </trkpt>
      <trkpt lat="47.2947" lon="4.91042">
        <ele>385.4</ele>
        <time>2012-11-30T11:04:48Z</time>
      </trkpt>
      <trkpt lat="47.29467" lon="4.9105">
        <ele>382.6</ele>
        <time>2012-11-30T11:04:59Z</time>
      </trkpt>
      <trkpt lat="47.29462" lon="4.9106">
        <ele>379.3</ele>
        <time>2012-11-30T11:05:10Z</time>
      </trkpt>
      <trkpt lat="47.29457" lon="4.91078">
        <ele>373.9</ele>
        <time>2012-11-30T11:05:21Z</time>
      </trkpt>
      <trkpt lat="47.29452" lon="4.91097">
        <ele>368.4</ele>
        <time>2012-11-30T11:05:32Z</time>
      </trkpt>
      <trkpt lat="47.29452" lon="4.91103">
        <ele>366.5</ele>
        <time>2012-11-30T11:05:43Z</time>
      </trkpt>
      <trkpt lat="47.29448" lon="4.91118">
        <ele>362</ele>
        <time>2012-11-30T11:05:54Z</time>
      </trkpt>
      <trkpt lat="47.29443" lon="4.91135">
        <ele>357</ele>
        <time>2012-11-30T11:06:05Z</time>
      </trkpt>
      <trkpt lat="47.29443" lon="4.91138">
        <ele>356.1</ele>
        <time>2012-11-30T11:06:16Z</time>
      </trkpt>
      <trkpt lat="47.29442" lon="4.91142">
        <ele>354.9</ele>
        <time>2012-11-30T11:06:27Z</time>
      </trkpt>
      <trkpt lat="47.29442" lon="4.91142">
        <ele>354.9</ele>
        <time>2012-11-30T11:06:38Z</time>
      </trkpt>
      <trkpt lat="47.29442" lon="4.91142">
        <ele>354.9</ele>
        <time>2012-11-30T11:06:49Z</time>
      </trkpt>
      <trkpt lat="47.29442" lon="4.91145">
        <ele>353.8</ele>
        <time>2012-11-30T11:07:00Z</time>
      </trkpt>
      <trkpt lat="47.2944" lon="4.91148">
        <ele>352.6</ele>
        <time>2012-11-30T11:07:11Z</time>
      </trkpt>
      <trkpt lat="47.29437" lon="4.91155">
        <ele>350.2</ele>
        <time>2012-11-30T11:07:22Z</time>
      </trkpt>
      <trkpt lat="47.29435" lon="4.91158">
        <ele>349</ele>
        <time>2012-11-30T11:07:33Z</time>
      </trkpt>
      <trkpt lat="47.29432" lon="4.9117">
        <ele>344.9</ele>
        <time>2012-11-30T11:07:44Z</time>
      </trkpt>
      <trkpt lat="47.2943" lon="4.91177">
        <ele>342.5</ele>
        <time>2012-11-30T11:07:55Z</time>
      </trkpt>
      <trkpt lat="47.29428" lon="4.91187">
        <ele>339.1</ele>
        <time>2012-11-30T11:08:06Z</time>
      </trkpt>
      <trkpt lat="47.29427" lon="4.91193">
        <ele>336.7</ele>
        <time>2012-11-30T11:08:17Z</time>
      </trkpt>
      <trkpt lat="47.29427" lon="4.91193">
        <ele>336.7</ele>
        <time>2012-11-30T11:08:28Z</time>
      </trkpt>
      <trkpt lat="47.29427" lon="4.91193">
        <ele>336.7</ele>
        <time>2012-11-30T11:08:39Z</time>
      </trkpt>
      <trkpt lat="47.29425" lon="4.91197">
        <ele>335.5</ele>
        <time>2012-11-30T11:08:50Z</time>
      </trkpt>
      <trkpt lat="47.29425" lon="4.91202">
        <ele>333.7</ele>
        <time>2012-11-30T11:09:01Z</time>
      </trkpt>
      <trkpt lat="47.29425" lon="4.91203">
        <ele>333.1</ele>
        <time>2012-11-30T11:09:12Z</time>
      </trkpt>
      <trkpt lat="47.29425" lon="4.91205">
        <ele>332.5</ele>
        <time>2012-11-30T11:09:23Z</time>
      </trkpt>
      <trkpt lat="47.29423" lon="4.91208">
        <ele>331.2</ele>
        <time>2012-11-30T11:09:34Z</time>
      </trkpt>
      <trkpt lat="47.29422" lon="4.91213">
        <ele>329.4</ele>
        <time>2012-11-30T11:09:45Z</time>
      </trkpt>
      <trkpt lat="47.29422" lon="4.91217">
        <ele>328.2</ele>
        <time>2012-11-30T11:09:56Z</time>
      </trkpt>
      <trkpt lat="47.2942" lon="4.9122">
        <ele>326.9</ele>
        <time>2012-11-30T11:10:07Z</time>
      </trkpt>
      <trkpt lat="47.29415" lon="4.91223">
        <ele>325.8</ele>
        <time>2012-11-30T11:10:18Z</time>
      </trkpt>
      <trkpt lat="47.2941" lon="4.91223">
        <ele>325.6</ele>
        <time>2012-11-30T11:10:29Z</time>
      </trkpt>
      <trkpt lat="47.29405" lon="4.91225">
        <ele>325.3</ele>
        <time>2012-11-30T11:10:40Z</time>
      </trkpt>
      <trkpt lat="47.29395" lon="4.91225">
        <ele>325.1</ele>
        <time>2012-11-30T11:10:51Z</time>
      </trkpt>
      <trkpt lat="47.29385" lon="4.91223">
        <ele>324.8</ele>
        <time>2012-11-30T11:11:02Z</time>
      </trkpt>
      <trkpt lat="47.29382" lon="4.91223">
        <ele>324.7</ele>
        <time>2012-11-30T11:11:13Z</time>
      </trkpt>
      <trkpt lat="47.29372" lon="4.9122">
        <ele>325</ele>
        <time>2012-11-30T11:11:24Z</time>
      </trkpt>
      <trkpt lat="47.29363" lon="4.91215">
        <ele>325.9</ele>
        <time>2012-11-30T11:11:35Z</time>
      </trkpt>
      <trkpt lat="47.2936" lon="4.91215">
        <ele>325.8</ele>
        <time>2012-11-30T11:11:46Z</time>
      </trkpt>
      <trkpt lat="47.29353" lon="4.91213">
        <ele>325.9</ele>
        <time>2012-11-30T11:11:57Z</time>
      </trkpt>
      <trkpt lat="47.29352" lon="4.91212">
        <ele>326.2</ele>
        <time>2012-11-30T11:12:08Z</time>
      </trkpt>
      <trkpt lat="47.29343" lon="4.91212">
        <ele>325.8</ele>
        <time>2012-11-30T11:12:19Z</time>
      </trkpt>
      <trkpt lat="47.29333" lon="4.91207">
        <ele>326.4</ele>
        <time>2012-11-30T11:12:30Z</time>
      </trkpt>
      <trkpt lat="47.29323" lon="4.91203">
        <ele>326.8</ele>
        <time>2012-11-30T11:12:41Z</time>
      </trkpt>
      <trkpt lat="47.29313" lon="4.912">
        <ele>326.9</ele>
        <time>2012-11-30T11:12:52Z</time>
      </trkpt>
      <trkpt lat="47.29302" lon="4.91192">
        <ele>327.6</ele>
        <time>2012-11-30T11:13:03Z</time>
      </trkpt>
      <trkpt lat="47.29288" lon="4.91188">
        <ele>327.9</ele>
        <time>2012-11-30T11:13:14Z</time>
      </trkpt>
      <trkpt lat="47.29273" lon="4.91182">
        <ele>328.7</ele>
        <time>2012-11-30T11:13:25Z</time>
      </trkpt>
      <trkpt lat="47.29258" lon="4.91177">
        <ele>329.2</ele>
        <time>2012-11-30T11:13:36Z</time>
      </trkpt>
      <trkpt lat="47.29235" lon="4.9117">
        <ele>328.8</ele>
        <time>2012-11-30T11:13:47Z</time>
      </trkpt>
      <trkpt lat="47.2922" lon="4.91165">
        <ele>328.3</ele>
        <time>2012-11-30T11:13:58Z</time>
      </trkpt>
      <trkpt lat="47.29205" lon="4.91162">
        <ele>328.3</ele>
        <time>2012-11-30T11:14:09Z</time>
      </trkpt>
      <trkpt lat="47.29192" lon="4.91153">
        <ele>328.9</ele>
        <time>2012-11-30T11:14:20Z</time>
      </trkpt>
      <trkpt lat="47.29177" lon="4.91147">
        <ele>329.1</ele>
        <time>2012-11-30T11:14:31Z</time>
      </trkpt>
      <trkpt lat="47.29163" lon="4.91142">
        <ele>328.8</ele>
        <time>2012-11-30T11:14:42Z</time>
      </trkpt>
      <trkpt lat="47.29145" lon="4.91143">
        <ele>328.7</ele>
        <time>2012-11-30T11:14:53Z</time>
      </trkpt>
      <trkpt lat="47.2913" lon="4.9114">
        <ele>328.8</ele>
        <time>2012-11-30T11:15:04Z</time>
      </trkpt>
      <trkpt lat="47.29118" lon="4.91138">
        <ele>329.6</ele>
        <time>2012-11-30T11:15:15Z</time>
      </trkpt>
      <trkpt lat="47.29113" lon="4.91138">
        <ele>407.663</ele>
        <time>2012-11-30T11:15:26Z</time>
      </trkpt>
      <trkpt lat="47.29105" lon="4.91137">
        <ele>330.6</ele>
        <time>2012-11-30T11:15:37Z</time>
      </trkpt>
      <trkpt lat="47.29085" lon="4.9114">
        <ele>332.1</ele>
        <time>2012-11-30T11:15:48Z</time>
      </trkpt>
      <trkpt lat="47.29067" lon="4.91137">
        <ele>331.8</ele>
        <time>2012-11-30T11:15:59Z</time>
      </trkpt>
      <trkpt lat="47.29047" lon="4.91138">
        <ele>332.6</ele>
        <time>2012-11-30T11:16:10Z</time>
      </trkpt>
      <trkpt lat="47.29027" lon="4.91137">
        <ele>333.8</ele>
        <time>2012-11-30T11:16:21Z</time>
      </trkpt>
      <trkpt lat="47.29013" lon="4.91132">
        <ele>334.2</ele>
        <time>2012-11-30T11:16:32Z</time>
      </trkpt>
      <trkpt lat="47.28993" lon="4.91128">
        <ele>334.7</ele>
        <time>2012-11-30T11:16:43Z</time>
      </trkpt>
      <trkpt lat="47.2898" lon="4.9112">
        <ele>332.9</ele>
        <time>2012-11-30T11:16:54Z</time>
      </trkpt>
      <trkpt lat="47.28963" lon="4.9111">
        <ele>331.7</ele>
        <time>2012-11-30T11:17:05Z</time>
      </trkpt>
      <trkpt lat="47.28945" lon="4.91105">
        <ele>333.4</ele>
        <time>2012-11-30T11:17:16Z</time>
      </trkpt>
      <trkpt lat="47.2893" lon="4.9109">
        <ele>334.8</ele>
        <time>2012-11-30T11:17:27Z</time>
      </trkpt>
      <trkpt lat="47.2892" lon="4.91077">
        <ele>336.5</ele>
        <time>2012-11-30T11:17:38Z</time>
      </trkpt>
      <trkpt lat="47.28902" lon="4.91058">
        <ele>338.9</ele>
        <time>2012-11-30T11:17:49Z</time>
      </trkpt>
      <trkpt lat="47.28888" lon="4.91047">
        <ele>340.5</ele>
        <time>2012-11-30T11:18:00Z</time>
      </trkpt>
      <trkpt lat="47.28875" lon="4.91038">
        <ele>340.7</ele>
        <time>2012-11-30T11:18:11Z</time>
      </trkpt>
      <trkpt lat="47.2886" lon="4.91025">
        <ele>340.6</ele>
        <time>2012-11-30T11:18:22Z</time>
      </trkpt>
      <trkpt lat="47.28848" lon="4.91012">
        <ele>342</ele>
        <time>2012-11-30T11:18:33Z</time>
      </trkpt>
      <trkpt lat="47.28823" lon="4.91002">
        <ele>339.4</ele>
        <time>2012-11-30T11:18:44Z</time>
      </trkpt>
      <trkpt lat="47.28797" lon="4.9099">
        <ele>338.3</ele>
        <time>2012-11-30T11:18:55Z</time>
      </trkpt>
      <trkpt lat="47.28773" lon="4.90972">
        <ele>338.2</ele>
        <time>2012-11-30T11:19:06Z</time>
      </trkpt>
      <trkpt lat="47.28748" lon="4.9095">
        <ele>339.8</ele>
        <time>2012-11-30T11:19:17Z</time>
      </trkpt>
      <trkpt lat="47.28728" lon="4.90933">
        <ele>341.1</ele>
        <time>2012-11-30T11:19:28Z</time>
      </trkpt>
      <trkpt lat="47.28707" lon="4.90922">
        <ele>341.5</ele>
        <time>2012-11-30T11:19:39Z</time>
      </trkpt>
      <trkpt lat="47.28688" lon="4.90903">
        <ele>343.5</ele>
        <time>2012-11-30T11:19:50Z</time>
      </trkpt>
      <trkpt lat="47.28673" lon="4.9089">
        <ele>343.8</ele>
        <time>2012-11-30T11:20:01Z</time>
      </trkpt>
      <trkpt lat="47.28657" lon="4.9088">
        <ele>343.9</ele>
        <time>2012-11-30T11:20:12Z</time>
      </trkpt>
      <trkpt lat="47.28648" lon="4.90872">
        <ele>344.2</ele>
        <time>2012-11-30T11:20:23Z</time>
      </trkpt>
      <trkpt lat="47.28637" lon="4.90862">
        <ele>343.7</ele>
        <time>2012-11-30T11:20:34Z</time>
      </trkpt>
      <trkpt lat="47.2862" lon="4.90855">
        <ele>343</ele>
        <time>2012-11-30T11:20:45Z</time>
      </trkpt>
      <trkpt lat="47.2861" lon="4.90848">
        <ele>342.8</ele>
        <time>2012-11-30T11:20:56Z</time>
      </trkpt>
      <trkpt lat="47.28593" lon="4.90845">
        <ele>342.5</ele>
        <time>2012-11-30T11:21:07Z</time>
      </trkpt>
      <trkpt lat="47.28582" lon="4.90843">
        <ele>342.1</ele>
        <time>2012-11-30T11:21:18Z</time>
      </trkpt>
      <trkpt lat="47.28572" lon="4.90838">
        <ele>342.6</ele>
        <time>2012-11-30T11:21:29Z</time>
      </trkpt>
      <trkpt lat="47.2855" lon="4.9083">
        <ele>343.4</ele>
        <time>2012-11-30T11:21:40Z</time>
      </trkpt>
      <trkpt lat="47.28535" lon="4.90827">
        <ele>344</ele>
        <time>2012-11-30T11:21:51Z</time>
      </trkpt>
      <trkpt lat="47.2852" lon="4.9082">
        <ele>344.5</ele>
        <time>2012-11-30T11:22:02Z</time>
      </trkpt>
      <trkpt lat="47.28503" lon="4.90817">
        <ele>344.6</ele>
        <time>2012-11-30T11:22:13Z</time>
      </trkpt>
      <trkpt lat="47.28483" lon="4.90818">
        <ele>344.8</ele>
        <time>2012-11-30T11:22:24Z</time>
      </trkpt>
      <trkpt lat="47.28472" lon="4.90813">
        <ele>345</ele>
        <time>2012-11-30T11:22:35Z</time>
      </trkpt>
      <trkpt lat="47.28462" lon="4.90812">
        <ele>345.2</ele>
        <time>2012-11-30T11:22:46Z</time>
      </trkpt>
      <trkpt lat="47.28445" lon="4.908">
        <ele>345.8</ele>
        <time>2012-11-30T11:22:57Z</time>
      </trkpt>
      <trkpt lat="47.2843" lon="4.9079">
        <ele>346.9</ele>
        <time>2012-11-30T11:23:08Z</time>
      </trkpt>
      <trkpt lat="47.28417" lon="4.90783">
        <ele>346.8</ele>
        <time>2012-11-30T11:23:19Z</time>
      </trkpt>
      <trkpt lat="47.28405" lon="4.90777">
        <ele>346.8</ele>
        <time>2012-11-30T11:23:30Z</time>
      </trkpt>
      <trkpt lat="47.28385" lon="4.90763">
        <ele>347.7</ele>
        <time>2012-11-30T11:23:41Z</time>
      </trkpt>
      <trkpt lat="47.28368" lon="4.90747">
        <ele>348</ele>
        <time>2012-11-30T11:23:52Z</time>
      </trkpt>
      <trkpt lat="47.28353" lon="4.90732">
        <ele>350.5</ele>
        <time>2012-11-30T11:24:03Z</time>
      </trkpt>
      <trkpt lat="47.28338" lon="4.90727">
        <ele>350</ele>
        <time>2012-11-30T11:24:14Z</time>
      </trkpt>
      <trkpt lat="47.28323" lon="4.90717">
        <ele>350.3</ele>
        <time>2012-11-30T11:24:25Z</time>
      </trkpt>
      <trkpt lat="47.28315" lon="4.90707">
        <ele>351.4</ele>
        <time>2012-11-30T11:24:36Z</time>
      </trkpt>
      <trkpt lat="47.28293" lon="4.90683">
        <ele>353</ele>
        <time>2012-11-30T11:24:47Z</time>
      </trkpt>
      <trkpt lat="47.28275" lon="4.90668">
        <ele>351.7</ele>
        <time>2012-11-30T11:24:58Z</time>
      </trkpt>
      <trkpt lat="47.28258" lon="4.90655">
        <ele>352.1</ele>
        <time>2012-11-30T11:25:09Z</time>
      </trkpt>
      <trkpt lat="47.2824" lon="4.90642">
        <ele>351.7</ele>
        <time>2012-11-30T11:25:20Z</time>
      </trkpt>
      <trkpt lat="47.28223" lon="4.90628">
        <ele>402.66</ele>
        <time>2012-11-30T11:25:31Z</time>
      </trkpt>
      <trkpt lat="47.2821" lon="4.90612">
        <ele>351.6</ele>
        <time>2012-11-30T11:25:42Z</time>
      </trkpt>
      <trkpt lat="47.28197" lon="4.90598">
        <ele>351.7</ele>
        <time>2012-11-30T11:25:53Z</time>
      </trkpt>
      <trkpt lat="47.28185" lon="4.90588">
        <ele>351.7</ele>
        <time>2012-11-30T11:26:04Z</time>
      </trkpt>
      <trkpt lat="47.28167" lon="4.9058">
        <ele>351.4</ele>
        <time>2012-11-30T11:26:15Z</time>
      </trkpt>
      <trkpt lat="47.28153" lon="4.9057">
        <ele>353</ele>
        <time>2012-11-30T11:26:26Z</time>
      </trkpt>
      <trkpt lat="47.28143" lon="4.90563">
        <ele>353.3</ele>
        <time>2012-11-30T11:26:37Z</time>
      </trkpt>
      <trkpt lat="47.28128" lon="4.90558">
        <ele>354</ele>
        <time>2012-11-30T11:26:48Z</time>
      </trkpt>
      <trkpt lat="47.2812" lon="4.9055">
        <ele>354.8</ele>
        <time>2012-11-30T11:26:59Z</time>
      </trkpt>
      <trkpt lat="47.28113" lon="4.90548">
        <ele>355.2</ele>
        <time>2012-11-30T11:27:10Z</time>
      </trkpt>
      <trkpt lat="47.28107" lon="4.90543">
        <ele>355.5</ele>
        <time>2012-11-30T11:27:21Z</time>
      </trkpt>
      <trkpt lat="47.28097" lon="4.90537">
        <ele>355.7</ele>
        <time>2012-11-30T11:27:32Z</time>
      </trkpt>
      <trkpt lat="47.28085" lon="4.90532">
        <ele>355.3</ele>
        <time>2012-11-30T11:27:43Z</time>
      </trkpt>
      <trkpt lat="47.28073" lon="4.90528">
        <ele>355.4</ele>
        <time>2012-11-30T11:27:54Z</time>
      </trkpt>
      <trkpt lat="47.2806" lon="4.90522">
        <ele>356.2</ele>
        <time>2012-11-30T11:28:05Z</time>
      </trkpt>
      <trkpt lat="47.28043" lon="4.9052">
        <ele>356.8</ele>
        <time>2012-11-30T11:28:16Z</time>
      </trkpt>
      <trkpt lat="47.28027" lon="4.90515">
        <ele>357.1</ele>
        <time>2012-11-30T11:28:27Z</time>
      </trkpt>
      <trkpt lat="47.28018" lon="4.90508">
        <ele>356.8</ele>
        <time>2012-11-30T11:28:38Z</time>
      </trkpt>
      <trkpt lat="47.28003" lon="4.905">
        <ele>356</ele>
        <time>2012-11-30T11:28:49Z</time>
      </trkpt>
      <trkpt lat="47.27988" lon="4.90492">
        <ele>357.2</ele>
        <time>2012-11-30T11:29:00Z</time>
      </trkpt>
      <trkpt lat="47.27983" lon="4.9049">
        <ele>357.4</ele>
        <time>2012-11-30T11:29:11Z</time>
      </trkpt>
      <trkpt lat="47.27967" lon="4.90485">
        <ele>422.36</ele>
        <time>2012-11-30T11:29:22Z</time>
      </trkpt>
      <trkpt lat="47.27955" lon="4.90478">
        <ele>357.9</ele>
        <time>2012-11-30T11:29:33Z</time>
      </trkpt>
      <trkpt lat="47.27937" lon="4.9048">
        <ele>358.1</ele>
        <time>2012-11-30T11:29:44Z</time>
      </trkpt>
      <trkpt lat="47.27918" lon="4.9048">
        <ele>358.3</ele>
        <time>2012-11-30T11:29:55Z</time>
      </trkpt>
      <trkpt lat="47.27897" lon="4.90478">
        <ele>358.7</ele>
        <time>2012-11-30T11:30:06Z</time>
      </trkpt>
      <trkpt lat="47.27883" lon="4.9048">
        <ele>359.8</ele>
        <time>2012-11-30T11:30:17Z</time>
      </trkpt>
      <trkpt lat="47.27863" lon="4.90485">
        <ele>363</ele>
        <time>2012-11-30T11:30:28Z</time>
      </trkpt>
      <trkpt lat="47.27838" lon="4.9049">
        <ele>366.9</ele>
        <time>2012-11-30T11:30:39Z</time>
      </trkpt>
      <trkpt lat="47.27812" lon="4.90492">
        <ele>369.7</ele>
        <time>2012-11-30T11:30:50Z</time>
      </trkpt>
      <trkpt lat="47.27788" lon="4.90493">
        <ele>371.5</ele>
        <time>2012-11-30T11:31:01Z</time>
      </trkpt>
      <trkpt lat="47.27775" lon="4.90495">
        <ele>372.4</ele>
        <time>2012-11-30T11:31:12Z</time>
      </trkpt>
      <trkpt lat="47.2776" lon="4.90497">
        <ele>371.8</ele>
        <time>2012-11-30T11:31:23Z</time>
      </trkpt>
      <trkpt lat="47.27745" lon="4.90503">
        <ele>372.5</ele>
        <time>2012-11-30T11:31:34Z</time>
      </trkpt>
      <trkpt lat="47.2772" lon="4.90507">
        <ele>371</ele>
        <time>2012-11-30T11:31:45Z</time>
      </trkpt>
      <trkpt lat="47.277" lon="4.90512">
        <ele>370.5</ele>
        <time>2012-11-30T11:31:56Z</time>
      </trkpt>
      <trkpt lat="47.27678" lon="4.9052">
        <ele>370.5</ele>
        <time>2012-11-30T11:32:07Z</time>
      </trkpt>
      <trkpt lat="47.27657" lon="4.90528">
        <ele>370.1</ele>
        <time>2012-11-30T11:32:18Z</time>
      </trkpt>
      <trkpt lat="47.27643" lon="4.90535">
        <ele>370.2</ele>
        <time>2012-11-30T11:32:29Z</time>
      </trkpt>
      <trkpt lat="47.2763" lon="4.9054">
        <ele>369.9</ele>
        <time>2012-11-30T11:32:40Z</time>
      </trkpt>
      <trkpt lat="47.27603" lon="4.90558">
        <ele>370.2</ele>
        <time>2012-11-30T11:32:51Z</time>
      </trkpt>
      <trkpt lat="47.27585" lon="4.90572">
        <ele>371.1</ele>
        <time>2012-11-30T11:33:02Z</time>
      </trkpt>
      <trkpt lat="47.27562" lon="4.90588">
        <ele>372.3</ele>
        <time>2012-11-30T11:33:13Z</time>
      </trkpt>
      <trkpt lat="47.27545" lon="4.90608">
        <ele>373.3</ele>
        <time>2012-11-30T11:33:24Z</time>
      </trkpt>
      <trkpt lat="47.2753" lon="4.90622">
        <ele>372.9</ele>
        <time>2012-11-30T11:33:35Z</time>
      </trkpt>
      <trkpt lat="47.27515" lon="4.90637">
        <ele>373.5</ele>
        <time>2012-11-30T11:33:46Z</time>
      </trkpt>
      <trkpt lat="47.275" lon="4.90652">
        <ele>372.5</ele>
        <time>2012-11-30T11:33:57Z</time>
      </trkpt>
      <trkpt lat="47.27485" lon="4.90665">
        <ele>373.1</ele>
        <time>2012-11-30T11:34:08Z</time>
      </trkpt>
      <trkpt lat="47.27473" lon="4.90678">
        <ele>373.1</ele>
        <time>2012-11-30T11:34:19Z</time>
      </trkpt>
      <trkpt lat="47.27463" lon="4.90685">
        <ele>373.4</ele>
        <time>2012-11-30T11:34:30Z</time>
      </trkpt>
      <trkpt lat="47.27458" lon="4.90692">
        <ele>373.2</ele>
        <time>2012-11-30T11:34:41Z</time>
      </trkpt>
      <trkpt lat="47.27448" lon="4.90702">
        <ele>373.4</ele>
        <time>2012-11-30T11:34:52Z</time>
      </trkpt>
      <trkpt lat="47.27437" lon="4.90713">
        <ele>374.1</ele>
        <time>2012-11-30T11:35:03Z</time>
      </trkpt>
      <trkpt lat="47.2742" lon="4.90725">
        <ele>375.1</ele>
        <time>2012-11-30T11:35:14Z</time>
      </trkpt>
      <trkpt lat="47.27413" lon="4.90728">
        <ele>375.6</ele>
        <time>2012-11-30T11:35:25Z</time>
      </trkpt>
      <trkpt lat="47.27403" lon="4.90733">
        <ele>376.4</ele>
        <time>2012-11-30T11:35:36Z</time>
      </trkpt>
      <trkpt lat="47.27402" lon="4.90735">
        <ele>376.5</ele>
        <time>2012-11-30T11:35:47Z</time>
      </trkpt>
      <trkpt lat="47.27402" lon="4.90735">
        <ele>376.5</ele>
        <time>2012-11-30T11:35:58Z</time>
      </trkpt>
      <trkpt lat="47.27397" lon="4.90738">
        <ele>376.8</ele>
        <time>2012-11-30T11:36:09Z</time>
      </trkpt>
      <trkpt lat="47.27397" lon="4.90738">
        <ele>376.8</ele>
        <time>2012-11-30T11:36:20Z</time>
      </trkpt>
      <trkpt lat="47.27395" lon="4.9074">
        <ele>376.8</ele>
        <time>2012-11-30T11:36:31Z</time>
      </trkpt>
      <trkpt lat="47.27383" lon="4.90752">
        <ele>377.4</ele>
        <time>2012-11-30T11:36:42Z</time>
      </trkpt>
      <trkpt lat="47.27378" lon="4.9076">
        <ele>378.4</ele>
        <time>2012-11-30T11:36:53Z</time>
      </trkpt>
      <trkpt lat="47.27368" lon="4.90773">
        <ele>379.2</ele>
        <time>2012-11-30T11:37:04Z</time>
      </trkpt>
      <trkpt lat="47.27365" lon="4.90783">
        <ele>380.2</ele>
        <time>2012-11-30T11:37:15Z</time>
      </trkpt>
      <trkpt lat="47.27362" lon="4.90792">
        <ele>381.1</ele>
        <time>2012-11-30T11:37:26Z</time>
      </trkpt>
      <trkpt lat="47.2736" lon="4.90803">
        <ele>382.6</ele>
        <time>2012-11-30T11:37:37Z</time>
      </trkpt>
      <trkpt lat="47.2736" lon="4.90808">
        <ele>383.4</ele>
        <time>2012-11-30T11:37:48Z</time>
      </trkpt>
      <trkpt lat="47.2736" lon="4.90812">
        <ele>384</ele>
        <time>2012-11-30T11:37:59Z</time>
      </trkpt>
      <trkpt lat="47.2736" lon="4.90815">
        <ele>384.5</ele>
        <time>2012-11-30T11:38:10Z</time>
      </trkpt>
      <trkpt lat="47.2736" lon="4.9082">
        <ele>385.4</ele>
        <time>2012-11-30T11:38:21Z</time>
      </trkpt>
      <trkpt lat="47.27363" lon="4.90827">
        <ele>387.4</ele>
        <time>2012-11-30T11:38:32Z</time>
      </trkpt>
      <trkpt lat="47.27363" lon="4.9083">
        <ele>388</ele>
        <time>2012-11-30T11:38:43Z</time>
      </trkpt>
      <trkpt lat="47.27365" lon="4.90835">
        <ele>389.4</ele>
        <time>2012-11-30T11:38:54Z</time>
      </trkpt>
      <trkpt lat="47.27367" lon="4.90842">
        <ele>390.9</ele>
        <time>2012-11-30T11:39:05Z</time>
      </trkpt>
      <trkpt lat="47.27368" lon="4.90847">
        <ele>392.2</ele>
        <time>2012-11-30T11:39:16Z</time>
      </trkpt>
      <trkpt lat="47.27372" lon="4.90858">
        <ele>395.3</ele>
        <time>2012-11-30T11:39:27Z</time>
      </trkpt>
      <trkpt lat="47.27375" lon="4.90863">
        <ele>397.2</ele>
        <time>2012-11-30T11:39:38Z</time>
      </trkpt>
      <trkpt lat="47.27378" lon="4.90872">
        <ele>399.3</ele>
        <time>2012-11-30T11:39:49Z</time>
      </trkpt>
      <trkpt lat="47.27382" lon="4.9088">
        <ele>401.6</ele>
        <time>2012-11-30T11:40:00Z</time>
      </trkpt>
      <trkpt lat="47.27385" lon="4.90882">
        <ele>417.35</ele>
        <time>2012-11-30T11:40:11Z</time>
      </trkpt>
      <trkpt lat="47.27388" lon="4.90888">
        <ele>405.7</ele>
        <time>2012-11-30T11:40:22Z</time>
      </trkpt>
      <trkpt lat="47.27392" lon="4.90893">
        <ele>418.87</ele>
        <time>2012-11-30T11:40:33Z</time>
      </trkpt>
      <trkpt lat="47.27398" lon="4.90903">
        <ele>409.1</ele>
        <time>2012-11-30T11:40:44Z</time>
      </trkpt>
      <trkpt lat="47.27405" lon="4.90912">
        <ele>411.6</ele>
        <time>2012-11-30T11:40:55Z</time>
      </trkpt>
      <trkpt lat="47.27415" lon="4.90923">
        <ele>420.91</ele>
        <time>2012-11-30T11:41:06Z</time>
      </trkpt>
      <trkpt lat="47.27422" lon="4.9093">
        <ele>418.5</ele>
        <time>2012-11-30T11:41:17Z</time>
      </trkpt>
      <trkpt lat="47.27437" lon="4.90945">
        <ele>424.5</ele>
        <time>2012-11-30T11:41:28Z</time>
      </trkpt>
      <trkpt lat="47.27447" lon="4.90952">
        <ele>428.3</ele>
        <time>2012-11-30T11:41:39Z</time>
      </trkpt>
      <trkpt lat="47.27457" lon="4.90955">
        <ele>430.8</ele>
        <time>2012-11-30T11:41:50Z</time>
      </trkpt>
      <trkpt lat="47.27463" lon="4.90958">
        <ele>432.6</ele>
        <time>2012-11-30T11:42:01Z</time>
      </trkpt>
      <trkpt lat="47.27472" lon="4.9096">
        <ele>434.6</ele>
        <time>2012-11-30T11:42:12Z</time>
      </trkpt>
      <trkpt lat="47.27482" lon="4.90962">
        <ele>436.1</ele>
        <time>2012-11-30T11:42:23Z</time>
      </trkpt>
      <trkpt lat="47.27488" lon="4.90965">
        <ele>437.4</ele>
        <time>2012-11-30T11:42:34Z</time>
      </trkpt>
      <trkpt lat="47.27498" lon="4.90968">
        <ele>439.2</ele>
        <time>2012-11-30T11:42:45Z</time>
      </trkpt>
      <trkpt lat="47.27508" lon="4.90977">
        <ele>441.6</ele>
        <time>2012-11-30T11:42:56Z</time>
      </trkpt>
      <trkpt lat="47.27513" lon="4.90985">
        <ele>443.5</ele>
        <time>2012-11-30T11:43:07Z</time>
      </trkpt>
      <trkpt lat="47.27515" lon="4.90987">
        <ele>444</ele>
        <time>2012-11-30T11:43:18Z</time>
      </trkpt>
      <trkpt lat="47.27517" lon="4.9099">
        <ele>444.7</ele>
        <time>2012-11-30T11:43:29Z</time>
      </trkpt>
      <trkpt lat="47.27525" lon="4.91005">
        <ele>448.3</ele>
        <time>2012-11-30T11:43:40Z</time>
      </trkpt>
      <trkpt lat="47.27533" lon="4.91018">
        <ele>451.4</ele>
        <time>2012-11-30T11:43:51Z</time>
      </trkpt>
      <trkpt lat="47.27542" lon="4.91028">
        <ele>454.1</ele>
        <time>2012-11-30T11:44:02Z</time>
      </trkpt>
      <trkpt lat="47.27547" lon="4.91037">
        <ele>455.9</ele>
        <time>2012-11-30T11:44:13Z</time>
      </trkpt>
      <trkpt lat="47.2755" lon="4.91042">
        <ele>457.1</ele>
        <time>2012-11-30T11:44:24Z</time>
      </trkpt>
      <trkpt lat="47.27555" lon="4.91048">
        <ele>458.9</ele>
        <time>2012-11-30T11:44:35Z</time>
      </trkpt>
      <trkpt lat="47.27555" lon="4.91052">
        <ele>459.3</ele>
        <time>2012-11-30T11:44:46Z</time>
      </trkpt>
      <trkpt lat="47.27563" lon="4.91065">
        <ele>462.4</ele>
        <time>2012-11-30T11:44:57Z</time>
      </trkpt>
      <trkpt lat="47.27572" lon="4.91075">
        <ele>464.7</ele>
        <time>2012-11-30T11:45:08Z</time>
      </trkpt>
      <trkpt lat="47.27578" lon="4.91087">
        <ele>466.8</ele>
        <time>2012-11-30T11:45:19Z</time>
      </trkpt>
      <trkpt lat="47.27588" lon="4.91097">
        <ele>468.7</ele>
        <time>2012-11-30T11:45:30Z</time>
      </trkpt>
      <trkpt lat="47.276" lon="4.91107">
        <ele>470.2</ele>
        <time>2012-11-30T11:45:41Z</time>
      </trkpt>
      <trkpt lat="47.27607" lon="4.91117">
        <ele>471.2</ele>
        <time>2012-11-30T11:45:52Z</time>
      </trkpt>
      <trkpt lat="47.27618" lon="4.91128">
        <ele>472.8</ele>
        <time>2012-11-30T11:46:03Z</time>
      </trkpt>
      <trkpt lat="47.2763" lon="4.91142">
        <ele>474.5</ele>
        <time>2012-11-30T11:46:14Z</time>
      </trkpt>
      <trkpt lat="47.27642" lon="4.91158">
        <ele>475.8</ele>
        <time>2012-11-30T11:46:25Z</time>
      </trkpt>
      <trkpt lat="47.27652" lon="4.91175">
        <ele>476.8</ele>
        <time>2012-11-30T11:46:36Z</time>
      </trkpt>
      <trkpt lat="47.2766" lon="4.9119">
        <ele>477.6</ele>
        <time>2012-11-30T11:46:47Z</time>
      </trkpt>
      <trkpt lat="47.2767" lon="4.91208">
        <ele>478.7</ele>
        <time>2012-11-30T11:46:58Z</time>
      </trkpt>
      <trkpt lat="47.27677" lon="4.91225">
        <ele>479.9</ele>
        <time>2012-11-30T11:47:09Z</time>
      </trkpt>
      <trkpt lat="47.27687" lon="4.9124">
        <ele>481.7</ele>
        <time>2012-11-30T11:47:20Z</time>
      </trkpt>
      <trkpt lat="47.27695" lon="4.91253">
        <ele>483.3</ele>
        <time>2012-11-30T11:47:31Z</time>
      </trkpt>
      <trkpt lat="47.27702" lon="4.91267">
        <ele>484.5</ele>
        <time>2012-11-30T11:47:42Z</time>
      </trkpt>
      <trkpt lat="47.27708" lon="4.91277">
        <ele>485.4</ele>
        <time>2012-11-30T11:47:53Z</time>
      </trkpt>
      <trkpt lat="47.27717" lon="4.91288">
        <ele>486.5</ele>
        <time>2012-11-30T11:48:04Z</time>
      </trkpt>
      <trkpt lat="47.27723" lon="4.91305">
        <ele>488</ele>
        <time>2012-11-30T11:48:15Z</time>
      </trkpt>
      <trkpt lat="47.2773" lon="4.91322">
        <ele>488.9</ele>
        <time>2012-11-30T11:48:26Z</time>
      </trkpt>
      <trkpt lat="47.27737" lon="4.9134">
        <ele>489.8</ele>
        <time>2012-11-30T11:48:37Z</time>
      </trkpt>
      <trkpt lat="47.27745" lon="4.91357">
        <ele>490.7</ele>
        <time>2012-11-30T11:48:48Z</time>
      </trkpt>
      <trkpt lat="47.27753" lon="4.91375">
        <ele>491.6</ele>
        <time>2012-11-30T11:48:59Z</time>
      </trkpt>
      <trkpt lat="47.27758" lon="4.91393">
        <ele>492.3</ele>
        <time>2012-11-30T11:49:10Z</time>
      </trkpt>
      <trkpt lat="47.27767" lon="4.91408">
        <ele>492.6</ele>
        <time>2012-11-30T11:49:21Z</time>
      </trkpt>
      <trkpt lat="47.27773" lon="4.91427">
        <ele>493.2</ele>
        <time>2012-11-30T11:49:32Z</time>
      </trkpt>
      <trkpt lat="47.27778" lon="4.91445">
        <ele>494</ele>
        <time>2012-11-30T11:49:43Z</time>
      </trkpt>
      <trkpt lat="47.27782" lon="4.9146">
        <ele>494.2</ele>
        <time>2012-11-30T11:49:54Z</time>
      </trkpt>
      <trkpt lat="47.27787" lon="4.91477">
        <ele>494.7</ele>
        <time>2012-11-30T11:50:05Z</time>
      </trkpt>
      <trkpt lat="47.27792" lon="4.91492">
        <ele>495.4</ele>
        <time>2012-11-30T11:50:16Z</time>
      </trkpt>
      <trkpt lat="47.27797" lon="4.91508">
        <ele>495.7</ele>
        <time>2012-11-30T11:50:27Z</time>
      </trkpt>
      <trkpt lat="47.2779" lon="4.91522">
        <ele>495.4</ele>
        <time>2012-11-30T11:50:38Z</time>
      </trkpt>
      <trkpt lat="47.27793" lon="4.91535">
        <ele>495.7</ele>
        <time>2012-11-30T11:50:49Z</time>
      </trkpt>
      <trkpt lat="47.27795" lon="4.91537">
        <ele>495.8</ele>
        <time>2012-11-30T11:51:00Z</time>
      </trkpt>
      <trkpt lat="47.27795" lon="4.91538">
        <ele>495.9</ele>
        <time>2012-11-30T11:51:11Z</time>
      </trkpt>
      <trkpt lat="47.27795" lon="4.91538">
        <ele>495.9</ele>
        <time>2012-11-30T11:51:25Z</time>
      </trkpt>
    </trkseg>
  </trk>
</gpx>